SPH336 OMDB-RPLL
Flight info
| Callsign | SPH336 |
|---|---|
| Flight time | 8h 14m |
| Altitude | 37000 |
| Route | IVURO1F IVURO M428 MUNGA A777 VAXIM L301 RASKI L639 GUREV/N0481F390 L639 BPL A791 CEA B465 CTG A599 LINSO/K0891S1190 A599 GODUL/K0887S1250 A599 POU B330 TAMOT/N0481F410 B330 BIGEX DCT POVAM DCT NOPER V642 NOMAN A461 AVMUP W16 TADEL TADEL3R |
| Aircraft | A359/H-V/N |
Departure
| Time | 2026-04-20 12:38 |
|---|---|
| Airport | Dubai International Airport (OMDB) |
Arrival
| Time | 2026-04-20 20:52 |
|---|---|
| Airport | Ninoy Aquino International Airport (RPLL) |
| Time | Latitude | Longitude | Altitude | Speed | Heading |
|---|---|---|---|---|---|
| 2026-04-20 11:21 | 25.25083 | 55.35914 | 28 ft | 0 kts | 211° |
| 2026-04-20 12:24 | 25.25091 | 55.35919 | 27 ft | 4 kts | 206° |
| 2026-04-20 12:24 | 25.25115 | 55.35931 | 28 ft | 4 kts | 196° |
| 2026-04-20 12:24 | 25.25141 | 55.35937 | 27 ft | 4 kts | 184° |
| 2026-04-20 12:25 | 25.25168 | 55.35937 | 25 ft | 4 kts | 171° |
| 2026-04-20 12:25 | 25.25193 | 55.35930 | 26 ft | 4 kts | 155° |
| 2026-04-20 12:25 | 25.25215 | 55.35917 | 26 ft | 4 kts | 137° |
| 2026-04-20 12:25 | 25.25228 | 55.35901 | 25 ft | 1 kts | 122° |
| 2026-04-20 12:26 | 25.25217 | 55.35921 | 25 ft | 4 kts | 122° |
| 2026-04-20 12:26 | 25.25200 | 55.35950 | 24 ft | 4 kts | 122° |
| 2026-04-20 12:26 | 25.25184 | 55.35979 | 26 ft | 4 kts | 122° |
| 2026-04-20 12:26 | 25.25173 | 55.35997 | 30 ft | 0 kts | 122° |
| 2026-04-20 12:27 | 25.25173 | 55.35998 | 30 ft | 0 kts | 122° |
| 2026-04-20 12:30 | 25.25160 | 55.36016 | 25 ft | 6 kts | 127° |
| 2026-04-20 12:30 | 25.25126 | 55.36069 | 28 ft | 11 kts | 123° |
| 2026-04-20 12:30 | 25.25080 | 55.36152 | 28 ft | 15 kts | 121° |
| 2026-04-20 12:31 | 25.25021 | 55.36258 | 28 ft | 18 kts | 121° |
| 2026-04-20 12:31 | 25.24949 | 55.36385 | 28 ft | 20 kts | 122° |
| 2026-04-20 12:31 | 25.24873 | 55.36519 | 28 ft | 21 kts | 122° |
| 2026-04-20 12:31 | 25.24803 | 55.36662 | 28 ft | 21 kts | 115° |
| 2026-04-20 12:32 | 25.24766 | 55.36814 | 28 ft | 20 kts | 111° |
| 2026-04-20 12:32 | 25.24699 | 55.36948 | 28 ft | 20 kts | 122° |
| 2026-04-20 12:32 | 25.24625 | 55.37079 | 28 ft | 21 kts | 122° |
| 2026-04-20 12:32 | 25.24548 | 55.37218 | 28 ft | 22 kts | 121° |
| 2026-04-20 12:33 | 25.24469 | 55.37354 | 28 ft | 19 kts | 122° |
| 2026-04-20 12:33 | 25.24433 | 55.37479 | 28 ft | 16 kts | 95° |
| 2026-04-20 12:33 | 25.24423 | 55.37604 | 29 ft | 16 kts | 102° |
| 2026-04-20 12:33 | 25.24394 | 55.37698 | 29 ft | 10 kts | 107° |
| 2026-04-20 12:34 | 25.24411 | 55.37750 | 30 ft | 4 kts | 48° |
| 2026-04-20 12:34 | 25.24412 | 55.37751 | 30 ft | 0 kts | 48° |
| 2026-04-20 12:35 | 25.24430 | 55.37770 | 31 ft | 3 kts | 36° |
| 2026-04-20 12:35 | 25.24459 | 55.37793 | 33 ft | 12 kts | 35° |
| 2026-04-20 12:35 | 25.24567 | 55.37876 | 34 ft | 26 kts | 34° |
| 2026-04-20 12:35 | 25.24693 | 55.37966 | 31 ft | 0 kts | 32° |
| 2026-04-20 12:36 | 25.24700 | 55.37971 | 32 ft | 9 kts | 32° |
| 2026-04-20 12:36 | 25.24774 | 55.38022 | 36 ft | 19 kts | 28° |
| 2026-04-20 12:36 | 25.24821 | 55.38020 | 36 ft | 10 kts | 334° |
| 2026-04-20 12:36 | 25.24837 | 55.37986 | 36 ft | 8 kts | 290° |
| 2026-04-20 12:37 | 25.24848 | 55.37958 | 36 ft | 0 kts | 294° |
| 2026-04-20 12:37 | 25.24934 | 55.37793 | 36 ft | 64 kts | 302° |
| 2026-04-20 12:38 | 25.25314 | 55.37109 | 37 ft | 143 kts | 301° |
| 2026-04-20 12:38 | 25.25906 | 55.35956 | 283 ft | 191 kts | 294° |
| 2026-04-20 12:38 | 25.26441 | 55.34624 | 1208 ft | 191 kts | 297° |
| 2026-04-20 12:38 | 25.27139 | 55.33340 | 1918 ft | 197 kts | 304° |
| 2026-04-20 12:39 | 25.28802 | 55.30700 | 2418 ft | 224 kts | 308° |
| 2026-04-20 12:39 | 25.30040 | 55.29638 | 2831 ft | 231 kts | 341° |
| 2026-04-20 12:39 | 25.31634 | 55.29433 | 3407 ft | 231 kts | 0° |
| 2026-04-20 12:40 | 25.33237 | 55.29497 | 3961 ft | 231 kts | 1° |
| 2026-04-20 12:40 | 25.34859 | 55.29566 | 4494 ft | 233 kts | 1° |
| 2026-04-20 12:40 | 25.36487 | 55.29625 | 4879 ft | 235 kts | 1° |
| 2026-04-20 12:40 | 25.38123 | 55.29683 | 4988 ft | 236 kts | 2° |
| 2026-04-20 12:41 | 25.39725 | 55.30094 | 5015 ft | 239 kts | 26° |
| 2026-04-20 12:41 | 25.41034 | 55.31285 | 5151 ft | 254 kts | 47° |
| 2026-04-20 12:41 | 25.42182 | 55.32847 | 5375 ft | 269 kts | 50° |
| 2026-04-20 12:41 | 25.43353 | 55.34493 | 5778 ft | 274 kts | 50° |
| 2026-04-20 12:42 | 25.44547 | 55.36152 | 6277 ft | 276 kts | 50° |
| 2026-04-20 12:42 | 25.45756 | 55.37820 | 6745 ft | 279 kts | 50° |
| 2026-04-20 12:42 | 25.46979 | 55.39499 | 7227 ft | 281 kts | 49° |
| 2026-04-20 12:42 | 25.48215 | 55.41191 | 7720 ft | 284 kts | 49° |
| 2026-04-20 12:43 | 25.49449 | 55.42900 | 8214 ft | 286 kts | 50° |
| 2026-04-20 12:43 | 25.50667 | 55.44655 | 8709 ft | 288 kts | 51° |
| 2026-04-20 12:43 | 25.51885 | 55.46433 | 9190 ft | 291 kts | 52° |
| 2026-04-20 12:43 | 25.52815 | 55.48433 | 9686 ft | 297 kts | 73° |
| 2026-04-20 12:44 | 25.52918 | 55.50687 | 10109 ft | 303 kts | 99° |
| 2026-04-20 12:44 | 25.52130 | 55.52893 | 10331 ft | 317 kts | 120° |
| 2026-04-20 12:44 | 25.50950 | 55.54936 | 10506 ft | 330 kts | 122° |
| 2026-04-20 12:44 | 25.49666 | 55.57100 | 10713 ft | 342 kts | 122° |
| 2026-04-20 12:45 | 25.48350 | 55.59357 | 10886 ft | 354 kts | 122° |
| 2026-04-20 12:45 | 25.47007 | 55.61686 | 11063 ft | 365 kts | 122° |
| 2026-04-20 12:45 | 25.45631 | 55.64085 | 11325 ft | 372 kts | 122° |
| 2026-04-20 12:45 | 25.44238 | 55.66520 | 11675 ft | 376 kts | 122° |
| 2026-04-20 12:46 | 25.42908 | 55.69032 | 12034 ft | 380 kts | 115° |
| 2026-04-20 12:46 | 25.42062 | 55.71796 | 12400 ft | 382 kts | 103° |
| 2026-04-20 12:46 | 25.41453 | 55.74668 | 12763 ft | 385 kts | 102° |
| 2026-04-20 12:46 | 25.40858 | 55.77575 | 13123 ft | 389 kts | 102° |
| 2026-04-20 12:47 | 25.40251 | 55.80501 | 13494 ft | 392 kts | 102° |
| 2026-04-20 12:47 | 25.39628 | 55.83446 | 13834 ft | 395 kts | 102° |
| 2026-04-20 12:47 | 25.38997 | 55.86409 | 14180 ft | 397 kts | 102° |
| 2026-04-20 12:47 | 25.38362 | 55.89384 | 14549 ft | 398 kts | 102° |
| 2026-04-20 12:48 | 25.37734 | 55.92323 | 14910 ft | 400 kts | 103° |
| 2026-04-20 12:48 | 25.37092 | 55.95329 | 15266 ft | 402 kts | 102° |
| 2026-04-20 12:48 | 25.36449 | 55.98347 | 15629 ft | 404 kts | 103° |
| 2026-04-20 12:48 | 25.35799 | 56.01370 | 16003 ft | 406 kts | 103° |
| 2026-04-20 12:49 | 25.35145 | 56.04414 | 16354 ft | 408 kts | 103° |
| 2026-04-20 12:49 | 25.34487 | 56.07474 | 16723 ft | 410 kts | 103° |
| 2026-04-20 12:49 | 25.33826 | 56.10550 | 17076 ft | 412 kts | 103° |
| 2026-04-20 12:49 | 25.33158 | 56.13641 | 17423 ft | 414 kts | 103° |
| 2026-04-20 12:50 | 25.32394 | 56.16719 | 17777 ft | 416 kts | 107° |
| 2026-04-20 12:50 | 25.31479 | 56.19764 | 18125 ft | 418 kts | 110° |
| 2026-04-20 12:50 | 25.30482 | 56.22791 | 18404 ft | 421 kts | 111° |
| 2026-04-20 12:50 | 25.29450 | 56.25823 | 18686 ft | 423 kts | 111° |
| 2026-04-20 12:51 | 25.28408 | 56.28875 | 18978 ft | 425 kts | 111° |
| 2026-04-20 12:51 | 25.27370 | 56.31941 | 19256 ft | 427 kts | 111° |
| 2026-04-20 12:51 | 25.26337 | 56.35027 | 19537 ft | 430 kts | 110° |
| 2026-04-20 12:51 | 25.25309 | 56.38135 | 19824 ft | 432 kts | 110° |
| 2026-04-20 12:52 | 25.24280 | 56.41260 | 20118 ft | 433 kts | 110° |
| 2026-04-20 12:52 | 25.23247 | 56.44391 | 20399 ft | 435 kts | 110° |
| 2026-04-20 12:52 | 25.22206 | 56.47538 | 20693 ft | 437 kts | 110° |
| 2026-04-20 12:52 | 25.21160 | 56.50698 | 20965 ft | 439 kts | 110° |
| 2026-04-20 12:53 | 25.20111 | 56.53863 | 21240 ft | 440 kts | 110° |
| 2026-04-20 12:53 | 25.19054 | 56.57051 | 21519 ft | 442 kts | 110° |
| 2026-04-20 12:53 | 25.17984 | 56.60245 | 21792 ft | 443 kts | 111° |
| 2026-04-20 12:53 | 25.16836 | 56.63410 | 22061 ft | 445 kts | 113° |
| 2026-04-20 12:54 | 25.15645 | 56.66517 | 22347 ft | 446 kts | 114° |
| 2026-04-20 12:54 | 25.14417 | 56.69667 | 22621 ft | 447 kts | 114° |
| 2026-04-20 12:54 | 25.13188 | 56.72828 | 22892 ft | 449 kts | 114° |
| 2026-04-20 12:54 | 25.11965 | 56.76002 | 23148 ft | 450 kts | 113° |
| 2026-04-20 12:55 | 25.10744 | 56.79199 | 23401 ft | 451 kts | 113° |
| 2026-04-20 12:55 | 25.09529 | 56.82399 | 23618 ft | 453 kts | 113° |
| 2026-04-20 12:55 | 25.08313 | 56.85611 | 23844 ft | 454 kts | 113° |
| 2026-04-20 12:55 | 25.07095 | 56.88831 | 24070 ft | 455 kts | 113° |
| 2026-04-20 12:56 | 25.05876 | 56.92053 | 24285 ft | 456 kts | 113° |
| 2026-04-20 12:56 | 25.04651 | 56.95287 | 24507 ft | 457 kts | 113° |
| 2026-04-20 12:56 | 25.03423 | 56.98525 | 24722 ft | 458 kts | 113° |
| 2026-04-20 12:56 | 25.02192 | 57.01767 | 24918 ft | 459 kts | 114° |
| 2026-04-20 12:57 | 25.00972 | 57.04976 | 25126 ft | 460 kts | 114° |
| 2026-04-20 12:57 | 24.99732 | 57.08235 | 25324 ft | 462 kts | 114° |
| 2026-04-20 12:57 | 24.98485 | 57.11510 | 25527 ft | 463 kts | 114° |
| 2026-04-20 12:57 | 24.97237 | 57.14786 | 25742 ft | 464 kts | 114° |
| 2026-04-20 12:58 | 24.95984 | 57.18071 | 25941 ft | 465 kts | 114° |
| 2026-04-20 12:58 | 24.94726 | 57.21367 | 26144 ft | 467 kts | 114° |
| 2026-04-20 12:58 | 24.93466 | 57.24667 | 26346 ft | 468 kts | 114° |
| 2026-04-20 12:58 | 24.92201 | 57.27977 | 26549 ft | 469 kts | 114° |
| 2026-04-20 12:59 | 24.90931 | 57.31297 | 26759 ft | 471 kts | 114° |
| 2026-04-20 12:59 | 24.89657 | 57.34626 | 26946 ft | 472 kts | 114° |
| 2026-04-20 12:59 | 24.88378 | 57.37964 | 27163 ft | 474 kts | 114° |
| 2026-04-20 12:59 | 24.87094 | 57.41311 | 27371 ft | 475 kts | 114° |
| 2026-04-20 13:00 | 24.85801 | 57.44681 | 27570 ft | 476 kts | 114° |
| 2026-04-20 13:00 | 24.84527 | 57.47999 | 27798 ft | 478 kts | 114° |
| 2026-04-20 13:00 | 24.83214 | 57.51417 | 27996 ft | 479 kts | 114° |
| 2026-04-20 13:00 | 24.81913 | 57.54799 | 28203 ft | 481 kts | 114° |
| 2026-04-20 13:01 | 24.80606 | 57.58193 | 28425 ft | 482 kts | 114° |
| 2026-04-20 13:01 | 24.79312 | 57.61551 | 28631 ft | 483 kts | 114° |
| 2026-04-20 13:01 | 24.77998 | 57.64959 | 28848 ft | 485 kts | 114° |
| 2026-04-20 13:01 | 24.76678 | 57.68381 | 29065 ft | 486 kts | 115° |
| 2026-04-20 13:02 | 24.75352 | 57.71814 | 29278 ft | 487 kts | 115° |
| 2026-04-20 13:02 | 24.74025 | 57.75249 | 29489 ft | 489 kts | 115° |
| 2026-04-20 13:02 | 24.72695 | 57.78690 | 29717 ft | 491 kts | 115° |
| 2026-04-20 13:02 | 24.71450 | 57.82200 | 29901 ft | 493 kts | 111° |
| 2026-04-20 13:03 | 24.70340 | 57.85773 | 30085 ft | 495 kts | 109° |
| 2026-04-20 13:03 | 24.69279 | 57.89382 | 30267 ft | 497 kts | 109° |
| 2026-04-20 13:03 | 24.68579 | 57.91777 | 30395 ft | 498 kts | 109° |
| 2026-04-20 13:03 | 24.67506 | 57.95401 | 30593 ft | 499 kts | 109° |
| 2026-04-20 13:04 | 24.66028 | 58.00269 | 30864 ft | 501 kts | 110° |
| 2026-04-20 13:04 | 24.65287 | 58.02667 | 30997 ft | 502 kts | 110° |
| 2026-04-20 13:04 | 24.64151 | 58.06309 | 31182 ft | 504 kts | 110° |
| 2026-04-20 13:04 | 24.63017 | 58.09922 | 31395 ft | 505 kts | 110° |
| 2026-04-20 13:05 | 24.61863 | 58.13585 | 31589 ft | 506 kts | 110° |
| 2026-04-20 13:05 | 24.60710 | 58.17244 | 31794 ft | 507 kts | 110° |
| 2026-04-20 13:05 | 24.59552 | 58.20918 | 32009 ft | 508 kts | 110° |
| 2026-04-20 13:05 | 24.58393 | 58.24593 | 32190 ft | 510 kts | 110° |
| 2026-04-20 13:06 | 24.57230 | 58.28279 | 32383 ft | 511 kts | 110° |
| 2026-04-20 13:06 | 24.56066 | 58.31968 | 32569 ft | 512 kts | 110° |
| 2026-04-20 13:06 | 24.54898 | 58.35665 | 32754 ft | 513 kts | 110° |
| 2026-04-20 13:06 | 24.53724 | 58.39378 | 32918 ft | 515 kts | 109° |
| 2026-04-20 13:07 | 24.52551 | 58.43086 | 33139 ft | 515 kts | 109° |
| 2026-04-20 13:07 | 24.51374 | 58.46801 | 33408 ft | 514 kts | 109° |
| 2026-04-20 13:07 | 24.50200 | 58.50503 | 33644 ft | 514 kts | 109° |
| 2026-04-20 13:07 | 24.49022 | 58.54212 | 33877 ft | 514 kts | 109° |
| 2026-04-20 13:08 | 24.47843 | 58.57923 | 34059 ft | 514 kts | 109° |
| 2026-04-20 13:08 | 24.46668 | 58.61619 | 34233 ft | 515 kts | 109° |
| 2026-04-20 13:08 | 24.45485 | 58.65337 | 34428 ft | 515 kts | 109° |
| 2026-04-20 13:08 | 24.44317 | 58.69002 | 34623 ft | 515 kts | 109° |
| 2026-04-20 13:09 | 24.43133 | 58.72715 | 34811 ft | 515 kts | 108° |
| 2026-04-20 13:09 | 24.41838 | 58.76375 | 34983 ft | 516 kts | 114° |
| 2026-04-20 13:09 | 24.40330 | 58.79947 | 35193 ft | 516 kts | 115° |
| 2026-04-20 13:09 | 24.38777 | 58.83498 | 35380 ft | 516 kts | 115° |
| 2026-04-20 13:10 | 24.37203 | 58.87036 | 35566 ft | 516 kts | 115° |
| 2026-04-20 13:10 | 24.35619 | 58.90571 | 35768 ft | 516 kts | 115° |
| 2026-04-20 13:10 | 24.34035 | 58.94103 | 35963 ft | 516 kts | 115° |
| 2026-04-20 13:10 | 24.32450 | 58.97638 | 36162 ft | 516 kts | 115° |
| 2026-04-20 13:11 | 24.30864 | 59.01182 | 36353 ft | 516 kts | 115° |
| 2026-04-20 13:11 | 24.29284 | 59.04716 | 36550 ft | 516 kts | 115° |
| 2026-04-20 13:11 | 24.27706 | 59.08246 | 36737 ft | 516 kts | 115° |
| 2026-04-20 13:12 | 24.24535 | 59.15339 | 36814 ft | 518 kts | 115° |
| 2026-04-20 13:12 | 24.21364 | 59.22418 | 36812 ft | 517 kts | 115° |
| 2026-04-20 13:13 | 24.18213 | 59.29442 | 36815 ft | 516 kts | 115° |
| 2026-04-20 13:13 | 24.15043 | 59.36494 | 36808 ft | 516 kts | 115° |
| 2026-04-20 13:14 | 24.11873 | 59.43536 | 36809 ft | 515 kts | 115° |
| 2026-04-20 13:14 | 24.08704 | 59.50567 | 36813 ft | 514 kts | 115° |
| 2026-04-20 13:15 | 24.05539 | 59.57581 | 36812 ft | 514 kts | 115° |
| 2026-04-20 13:15 | 24.02372 | 59.64583 | 36816 ft | 513 kts | 115° |
| 2026-04-20 13:16 | 23.99207 | 59.71571 | 36814 ft | 512 kts | 115° |
| 2026-04-20 13:16 | 23.96042 | 59.78549 | 36814 ft | 512 kts | 115° |
| 2026-04-20 13:17 | 23.92875 | 59.85523 | 36816 ft | 511 kts | 115° |
| 2026-04-20 13:17 | 23.89711 | 59.92479 | 36819 ft | 511 kts | 115° |
| 2026-04-20 13:18 | 23.86546 | 59.99428 | 36819 ft | 510 kts | 115° |
| 2026-04-20 13:18 | 23.83398 | 60.06329 | 36818 ft | 510 kts | 115° |
| 2026-04-20 13:19 | 23.80226 | 60.13271 | 36819 ft | 510 kts | 115° |
| 2026-04-20 13:19 | 23.77052 | 60.20208 | 36819 ft | 510 kts | 115° |
| 2026-04-20 13:20 | 23.73877 | 60.27139 | 36822 ft | 510 kts | 115° |
| 2026-04-20 13:20 | 23.70697 | 60.34070 | 36821 ft | 510 kts | 114° |
| 2026-04-20 13:21 | 23.67517 | 60.40990 | 36824 ft | 510 kts | 114° |
| 2026-04-20 13:21 | 23.64332 | 60.47912 | 36824 ft | 510 kts | 114° |
| 2026-04-20 13:22 | 23.61165 | 60.54784 | 36825 ft | 510 kts | 114° |
| 2026-04-20 13:22 | 23.57970 | 60.61708 | 36827 ft | 510 kts | 114° |
| 2026-04-20 13:23 | 23.54779 | 60.68614 | 36827 ft | 510 kts | 114° |
| 2026-04-20 13:23 | 23.51583 | 60.75517 | 36829 ft | 510 kts | 114° |
| 2026-04-20 13:24 | 23.48391 | 60.82405 | 36830 ft | 509 kts | 113° |
| 2026-04-20 13:24 | 23.45193 | 60.89294 | 36834 ft | 509 kts | 113° |
| 2026-04-20 13:25 | 23.41996 | 60.96173 | 36834 ft | 509 kts | 113° |
| 2026-04-20 13:25 | 23.38803 | 61.03034 | 36833 ft | 508 kts | 113° |
| 2026-04-20 13:26 | 23.35624 | 61.09855 | 36836 ft | 508 kts | 113° |
| 2026-04-20 13:26 | 23.32579 | 61.16765 | 36836 ft | 503 kts | 106° |
| 2026-04-20 13:27 | 23.31129 | 61.24102 | 36835 ft | 493 kts | 92° |
| 2026-04-20 13:27 | 23.30436 | 61.31524 | 36836 ft | 493 kts | 91° |
| 2026-04-20 13:28 | 23.29825 | 61.38946 | 36836 ft | 492 kts | 91° |
| 2026-04-20 13:28 | 23.29189 | 61.46365 | 36837 ft | 492 kts | 91° |
| 2026-04-20 13:29 | 23.28530 | 61.53772 | 36838 ft | 492 kts | 91° |
| 2026-04-20 13:29 | 23.27860 | 61.61179 | 36837 ft | 492 kts | 91° |
| 2026-04-20 13:30 | 23.27187 | 61.68585 | 36840 ft | 492 kts | 91° |
| 2026-04-20 13:30 | 23.26512 | 61.75983 | 36839 ft | 492 kts | 92° |
| 2026-04-20 13:31 | 23.25834 | 61.83395 | 36845 ft | 492 kts | 92° |
| 2026-04-20 13:31 | 23.25151 | 61.90809 | 36845 ft | 492 kts | 92° |
| 2026-04-20 13:32 | 23.24465 | 61.98216 | 36842 ft | 493 kts | 92° |
| 2026-04-20 13:32 | 23.23775 | 62.05633 | 36846 ft | 493 kts | 92° |
| 2026-04-20 13:33 | 23.23082 | 62.13049 | 36845 ft | 493 kts | 92° |
| 2026-04-20 13:33 | 23.22389 | 62.20418 | 36847 ft | 494 kts | 92° |
| 2026-04-20 13:34 | 23.21687 | 62.27853 | 36845 ft | 494 kts | 92° |
| 2026-04-20 13:34 | 23.20981 | 62.35287 | 36844 ft | 494 kts | 92° |
| 2026-04-20 13:35 | 23.20271 | 62.42724 | 36845 ft | 495 kts | 92° |
| 2026-04-20 13:35 | 23.19558 | 62.50162 | 36848 ft | 495 kts | 92° |
| 2026-04-20 13:36 | 23.18840 | 62.57610 | 36848 ft | 495 kts | 92° |
| 2026-04-20 13:36 | 23.18119 | 62.65059 | 36850 ft | 496 kts | 92° |
| 2026-04-20 13:37 | 23.17393 | 62.72519 | 36849 ft | 496 kts | 93° |
| 2026-04-20 13:37 | 23.16663 | 62.79982 | 36849 ft | 496 kts | 93° |
| 2026-04-20 13:38 | 23.15930 | 62.87440 | 36851 ft | 496 kts | 93° |
| 2026-04-20 13:38 | 23.15194 | 62.94891 | 36850 ft | 496 kts | 93° |
| 2026-04-20 13:39 | 23.14452 | 63.02360 | 36849 ft | 496 kts | 93° |
| 2026-04-20 13:39 | 23.13709 | 63.09812 | 36853 ft | 496 kts | 93° |
| 2026-04-20 13:40 | 23.12967 | 63.17214 | 36851 ft | 496 kts | 93° |
| 2026-04-20 13:40 | 23.12218 | 63.24655 | 36852 ft | 495 kts | 93° |
| 2026-04-20 13:41 | 23.11465 | 63.32093 | 36852 ft | 495 kts | 93° |
| 2026-04-20 13:41 | 23.10711 | 63.39514 | 36853 ft | 495 kts | 93° |
| 2026-04-20 13:42 | 23.09952 | 63.46943 | 36849 ft | 494 kts | 93° |
| 2026-04-20 13:42 | 23.08810 | 63.58065 | 36856 ft | 494 kts | 93° |
| 2026-04-20 13:43 | 23.08043 | 63.65482 | 36854 ft | 493 kts | 93° |
| 2026-04-20 13:43 | 23.07280 | 63.72841 | 36854 ft | 493 kts | 93° |
| 2026-04-20 13:44 | 23.06508 | 63.80244 | 36852 ft | 493 kts | 94° |
| 2026-04-20 13:44 | 23.05732 | 63.87650 | 36857 ft | 493 kts | 94° |
| 2026-04-20 13:45 | 23.04978 | 63.95060 | 36859 ft | 493 kts | 93° |
| 2026-04-20 13:45 | 23.04230 | 64.02467 | 36861 ft | 493 kts | 93° |
| 2026-04-20 13:46 | 23.03476 | 64.09867 | 36857 ft | 493 kts | 94° |
| 2026-04-20 13:46 | 23.02716 | 64.17282 | 36859 ft | 493 kts | 94° |
| 2026-04-20 13:47 | 23.01952 | 64.24684 | 36859 ft | 493 kts | 94° |
| 2026-04-20 13:47 | 23.01185 | 64.32084 | 36858 ft | 493 kts | 94° |
| 2026-04-20 13:48 | 23.00414 | 64.39498 | 36862 ft | 493 kts | 94° |
| 2026-04-20 13:48 | 22.99645 | 64.46850 | 36858 ft | 493 kts | 94° |
| 2026-04-20 13:49 | 22.98869 | 64.54240 | 36863 ft | 493 kts | 94° |
| 2026-04-20 13:49 | 22.98088 | 64.61642 | 36860 ft | 493 kts | 94° |
| 2026-04-20 13:50 | 22.97304 | 64.69045 | 36865 ft | 494 kts | 94° |
| 2026-04-20 13:50 | 22.96649 | 64.75199 | 36862 ft | 494 kts | 94° |
| 2026-04-20 13:51 | 22.95898 | 64.82600 | 36862 ft | 492 kts | 91° |
| 2026-04-20 13:51 | 22.95799 | 64.90015 | 36862 ft | 491 kts | 87° |
| 2026-04-20 13:52 | 22.95845 | 64.97426 | 36864 ft | 491 kts | 87° |
| 2026-04-20 13:52 | 22.95904 | 65.04833 | 36850 ft | 491 kts | 87° |
| 2026-04-20 13:53 | 22.95949 | 65.12247 | 36868 ft | 491 kts | 87° |
| 2026-04-20 13:53 | 22.95984 | 65.19661 | 36868 ft | 491 kts | 87° |
| 2026-04-20 13:54 | 22.96014 | 65.27082 | 36867 ft | 491 kts | 87° |
| 2026-04-20 13:54 | 22.96041 | 65.34443 | 36867 ft | 491 kts | 87° |
| 2026-04-20 13:55 | 22.96065 | 65.41847 | 36873 ft | 491 kts | 87° |
| 2026-04-20 13:55 | 22.96085 | 65.49255 | 36858 ft | 490 kts | 87° |
| 2026-04-20 13:56 | 22.96102 | 65.56646 | 36873 ft | 490 kts | 87° |
| 2026-04-20 13:56 | 22.96116 | 65.64031 | 36854 ft | 489 kts | 87° |
| 2026-04-20 13:57 | 22.96126 | 65.71405 | 36874 ft | 489 kts | 87° |
| 2026-04-20 13:57 | 22.96133 | 65.78779 | 36860 ft | 488 kts | 87° |
| 2026-04-20 13:58 | 22.96134 | 65.86151 | 36862 ft | 488 kts | 87° |
| 2026-04-20 13:58 | 22.96135 | 65.93472 | 36876 ft | 488 kts | 87° |
| 2026-04-20 13:59 | 22.96132 | 66.00824 | 36862 ft | 487 kts | 87° |
| 2026-04-20 13:59 | 22.96126 | 66.08179 | 36869 ft | 487 kts | 87° |
| 2026-04-20 14:00 | 22.96115 | 66.15524 | 36865 ft | 487 kts | 87° |
| 2026-04-20 14:00 | 22.96102 | 66.22869 | 36853 ft | 486 kts | 87° |
| 2026-04-20 14:01 | 22.96085 | 66.30205 | 36865 ft | 486 kts | 87° |
| 2026-04-20 14:01 | 22.96064 | 66.37545 | 36861 ft | 486 kts | 87° |
| 2026-04-20 14:02 | 22.96041 | 66.44873 | 36864 ft | 486 kts | 87° |
| 2026-04-20 14:02 | 22.96013 | 66.52210 | 36864 ft | 486 kts | 87° |
| 2026-04-20 14:03 | 22.95983 | 66.59541 | 36875 ft | 486 kts | 87° |
| 2026-04-20 14:03 | 22.95949 | 66.66868 | 36869 ft | 486 kts | 87° |
| 2026-04-20 14:04 | 22.95912 | 66.74198 | 36860 ft | 486 kts | 87° |
| 2026-04-20 14:04 | 22.95871 | 66.81530 | 36859 ft | 486 kts | 87° |
| 2026-04-20 14:05 | 22.95827 | 66.88810 | 36862 ft | 486 kts | 87° |
| 2026-04-20 14:05 | 22.95780 | 66.96132 | 36871 ft | 485 kts | 87° |
| 2026-04-20 14:06 | 22.95772 | 67.03447 | 36855 ft | 484 kts | 86° |
| 2026-04-20 14:06 | 22.95802 | 67.10768 | 36860 ft | 484 kts | 86° |
| 2026-04-20 14:07 | 22.95824 | 67.18072 | 36864 ft | 484 kts | 86° |
| 2026-04-20 14:07 | 22.95836 | 67.25374 | 36858 ft | 484 kts | 86° |
| 2026-04-20 14:08 | 22.95841 | 67.32677 | 36863 ft | 484 kts | 86° |
| 2026-04-20 14:08 | 22.95843 | 67.39979 | 36862 ft | 484 kts | 86° |
| 2026-04-20 14:09 | 22.95842 | 67.47277 | 36863 ft | 484 kts | 86° |
| 2026-04-20 14:09 | 22.95838 | 67.54582 | 36863 ft | 484 kts | 86° |
| 2026-04-20 14:10 | 22.95831 | 67.61832 | 36863 ft | 484 kts | 86° |
| 2026-04-20 14:10 | 22.95820 | 67.69133 | 36861 ft | 484 kts | 86° |
| 2026-04-20 14:11 | 22.95806 | 67.76438 | 36864 ft | 484 kts | 86° |
| 2026-04-20 14:11 | 22.95789 | 67.83756 | 36855 ft | 485 kts | 86° |
| 2026-04-20 14:12 | 22.95774 | 67.91068 | 36855 ft | 485 kts | 86° |
| 2026-04-20 14:12 | 22.95784 | 67.98385 | 36858 ft | 485 kts | 86° |
| 2026-04-20 14:13 | 22.95796 | 68.05712 | 36852 ft | 485 kts | 86° |
| 2026-04-20 14:13 | 22.95800 | 68.13033 | 36858 ft | 486 kts | 86° |
| 2026-04-20 14:14 | 22.95798 | 68.20362 | 36857 ft | 486 kts | 86° |
| 2026-04-20 14:14 | 22.95793 | 68.27708 | 36864 ft | 486 kts | 86° |
| 2026-04-20 14:15 | 22.95784 | 68.35049 | 36858 ft | 487 kts | 86° |
| 2026-04-20 14:15 | 22.95692 | 68.42403 | 36857 ft | 488 kts | 90° |
| 2026-04-20 14:16 | 22.95225 | 68.49710 | 36856 ft | 489 kts | 91° |
| 2026-04-20 14:16 | 22.94706 | 68.57065 | 36854 ft | 489 kts | 91° |
| 2026-04-20 14:17 | 22.94242 | 68.64438 | 36856 ft | 489 kts | 91° |
| 2026-04-20 14:17 | 22.93809 | 68.71807 | 36857 ft | 490 kts | 91° |
| 2026-04-20 14:18 | 22.93377 | 68.79199 | 36853 ft | 490 kts | 91° |
| 2026-04-20 14:18 | 22.92940 | 68.86593 | 36854 ft | 491 kts | 91° |
| 2026-04-20 14:19 | 22.92496 | 68.93986 | 36854 ft | 492 kts | 91° |
| 2026-04-20 14:19 | 22.92052 | 69.01337 | 36854 ft | 492 kts | 91° |
| 2026-04-20 14:20 | 22.91601 | 69.08750 | 36855 ft | 493 kts | 92° |
| 2026-04-20 14:20 | 22.91145 | 69.16166 | 36855 ft | 493 kts | 92° |
| 2026-04-20 14:21 | 22.90685 | 69.23610 | 36851 ft | 494 kts | 92° |
| 2026-04-20 14:21 | 22.90221 | 69.31051 | 36855 ft | 495 kts | 92° |
| 2026-04-20 14:22 | 22.89753 | 69.38507 | 36853 ft | 495 kts | 92° |
| 2026-04-20 14:22 | 22.89281 | 69.45965 | 36854 ft | 496 kts | 92° |
| 2026-04-20 14:23 | 22.88806 | 69.53428 | 36855 ft | 496 kts | 93° |
| 2026-04-20 14:23 | 22.88325 | 69.60906 | 36847 ft | 497 kts | 93° |
| 2026-04-20 14:24 | 22.87844 | 69.68345 | 36847 ft | 498 kts | 93° |
| 2026-04-20 14:24 | 22.87379 | 69.75840 | 36846 ft | 499 kts | 92° |
| 2026-04-20 14:25 | 22.86952 | 69.83354 | 36845 ft | 499 kts | 92° |
| 2026-04-20 14:25 | 22.86523 | 69.90873 | 36844 ft | 500 kts | 93° |
| 2026-04-20 14:26 | 22.86083 | 69.98401 | 36839 ft | 500 kts | 93° |
| 2026-04-20 14:26 | 22.85635 | 70.05942 | 36839 ft | 501 kts | 93° |
| 2026-04-20 14:27 | 22.85184 | 70.13477 | 36842 ft | 501 kts | 93° |
| 2026-04-20 14:27 | 22.84732 | 70.20966 | 36842 ft | 501 kts | 94° |
| 2026-04-20 14:28 | 22.84274 | 70.28505 | 36842 ft | 501 kts | 94° |
| 2026-04-20 14:28 | 22.83812 | 70.36049 | 36844 ft | 501 kts | 94° |
| 2026-04-20 14:29 | 22.83347 | 70.43591 | 36843 ft | 502 kts | 94° |
| 2026-04-20 14:29 | 22.82877 | 70.51141 | 36845 ft | 502 kts | 94° |
| 2026-04-20 14:30 | 22.82404 | 70.58692 | 36844 ft | 502 kts | 94° |
| 2026-04-20 14:30 | 22.81926 | 70.66255 | 36844 ft | 502 kts | 94° |
| 2026-04-20 14:31 | 22.81445 | 70.73813 | 36839 ft | 502 kts | 94° |
| 2026-04-20 14:31 | 22.80999 | 70.81378 | 36838 ft | 503 kts | 91° |
| 2026-04-20 14:32 | 22.81648 | 70.88914 | 36840 ft | 503 kts | 82° |
| 2026-04-20 14:32 | 22.82754 | 70.96411 | 36838 ft | 504 kts | 81° |
| 2026-04-20 14:33 | 22.83912 | 71.03917 | 36837 ft | 504 kts | 81° |
| 2026-04-20 14:33 | 22.85043 | 71.11372 | 36833 ft | 505 kts | 81° |
| 2026-04-20 14:34 | 22.86163 | 71.18880 | 36831 ft | 505 kts | 81° |
| 2026-04-20 14:34 | 22.87278 | 71.26406 | 36828 ft | 505 kts | 81° |
| 2026-04-20 14:35 | 22.88391 | 71.33942 | 36828 ft | 506 kts | 81° |
| 2026-04-20 14:35 | 22.89503 | 71.41486 | 36824 ft | 506 kts | 82° |
| 2026-04-20 14:36 | 22.90611 | 71.49038 | 36823 ft | 507 kts | 82° |
| 2026-04-20 14:36 | 22.91717 | 71.56596 | 36806 ft | 508 kts | 82° |
| 2026-04-20 14:37 | 22.92814 | 71.64117 | 36808 ft | 508 kts | 82° |
| 2026-04-20 14:37 | 22.93916 | 71.71697 | 36806 ft | 509 kts | 82° |
| 2026-04-20 14:38 | 22.95015 | 71.79285 | 36805 ft | 509 kts | 82° |
| 2026-04-20 14:38 | 22.96112 | 71.86883 | 36802 ft | 510 kts | 82° |
| 2026-04-20 14:39 | 22.97206 | 71.94492 | 36802 ft | 511 kts | 82° |
| 2026-04-20 14:39 | 22.98114 | 72.00821 | 36798 ft | 511 kts | 82° |
| 2026-04-20 14:40 | 22.99205 | 72.08454 | 36797 ft | 512 kts | 83° |
| 2026-04-20 14:40 | 23.00292 | 72.16089 | 36795 ft | 513 kts | 83° |
| 2026-04-20 14:41 | 23.01556 | 72.24996 | 36790 ft | 513 kts | 83° |
| 2026-04-20 14:41 | 23.02463 | 72.31413 | 36791 ft | 514 kts | 83° |
| 2026-04-20 14:42 | 23.03547 | 72.39105 | 36792 ft | 515 kts | 83° |
| 2026-04-20 14:42 | 23.04620 | 72.46744 | 36800 ft | 516 kts | 83° |
| 2026-04-20 14:43 | 23.05698 | 72.54447 | 36802 ft | 516 kts | 83° |
| 2026-04-20 14:43 | 23.06747 | 72.62177 | 36796 ft | 516 kts | 86° |
| 2026-04-20 14:44 | 23.07292 | 72.69948 | 36801 ft | 516 kts | 89° |
| 2026-04-20 14:44 | 23.07727 | 72.77731 | 36799 ft | 517 kts | 89° |
| 2026-04-20 14:45 | 23.08144 | 72.85469 | 36797 ft | 517 kts | 89° |
| 2026-04-20 14:45 | 23.08568 | 72.93278 | 36794 ft | 518 kts | 89° |
| 2026-04-20 14:46 | 23.08994 | 73.01085 | 36794 ft | 518 kts | 89° |
| 2026-04-20 14:46 | 23.09418 | 73.08906 | 36798 ft | 519 kts | 89° |
| 2026-04-20 14:47 | 23.09838 | 73.16735 | 36795 ft | 520 kts | 89° |
| 2026-04-20 14:48 | 23.10463 | 73.28507 | 36802 ft | 521 kts | 89° |
| 2026-04-20 14:48 | 23.10874 | 73.36362 | 36807 ft | 521 kts | 89° |
| 2026-04-20 14:49 | 23.11282 | 73.44225 | 36801 ft | 522 kts | 90° |
| 2026-04-20 14:49 | 23.11687 | 73.52096 | 36805 ft | 522 kts | 90° |
| 2026-04-20 14:50 | 23.12089 | 73.59989 | 36811 ft | 523 kts | 90° |
| 2026-04-20 14:50 | 23.12487 | 73.67879 | 36812 ft | 523 kts | 90° |
| 2026-04-20 14:51 | 23.12879 | 73.75732 | 36821 ft | 524 kts | 90° |
| 2026-04-20 14:51 | 23.13269 | 73.83644 | 36828 ft | 524 kts | 90° |
| 2026-04-20 14:52 | 23.13656 | 73.91568 | 36831 ft | 525 kts | 90° |
| 2026-04-20 14:52 | 23.14040 | 73.99492 | 36837 ft | 526 kts | 90° |
| 2026-04-20 14:53 | 23.14422 | 74.07438 | 36838 ft | 527 kts | 91° |
| 2026-04-20 14:53 | 23.14798 | 74.15400 | 36854 ft | 528 kts | 91° |
| 2026-04-20 14:54 | 23.15172 | 74.23378 | 36858 ft | 529 kts | 91° |
| 2026-04-20 14:54 | 23.15543 | 74.31369 | 36867 ft | 530 kts | 91° |
| 2026-04-20 14:55 | 23.15863 | 74.39360 | 36866 ft | 529 kts | 92° |
| 2026-04-20 14:55 | 23.16006 | 74.47364 | 36870 ft | 529 kts | 93° |
| 2026-04-20 14:56 | 23.16127 | 74.55369 | 36881 ft | 530 kts | 93° |
| 2026-04-20 14:56 | 23.16272 | 74.63392 | 36887 ft | 531 kts | 93° |
| 2026-04-20 14:57 | 23.16429 | 74.71363 | 36895 ft | 532 kts | 93° |
| 2026-04-20 14:57 | 23.16583 | 74.79405 | 36894 ft | 532 kts | 93° |
| 2026-04-20 14:58 | 23.16733 | 74.87457 | 36907 ft | 533 kts | 94° |
| 2026-04-20 14:58 | 23.16879 | 74.95507 | 36902 ft | 533 kts | 94° |
| 2026-04-20 14:59 | 23.17021 | 75.03566 | 36914 ft | 533 kts | 94° |
| 2026-04-20 14:59 | 23.17157 | 75.11624 | 36917 ft | 534 kts | 94° |
| 2026-04-20 15:00 | 23.17290 | 75.19703 | 36930 ft | 534 kts | 94° |
| 2026-04-20 15:00 | 23.17419 | 75.27783 | 36934 ft | 535 kts | 94° |
| 2026-04-20 15:01 | 23.17544 | 75.35871 | 36929 ft | 535 kts | 94° |
| 2026-04-20 15:01 | 23.17665 | 75.43959 | 36937 ft | 535 kts | 94° |
| 2026-04-20 15:02 | 23.17781 | 75.52000 | 36935 ft | 536 kts | 94° |
| 2026-04-20 15:02 | 23.17894 | 75.60097 | 36931 ft | 536 kts | 94° |
| 2026-04-20 15:03 | 23.18003 | 75.68207 | 36929 ft | 537 kts | 94° |
| 2026-04-20 15:03 | 23.18108 | 75.76319 | 36930 ft | 537 kts | 94° |
| 2026-04-20 15:04 | 23.18209 | 75.84444 | 36924 ft | 538 kts | 94° |
| 2026-04-20 15:04 | 23.18305 | 75.92571 | 36919 ft | 538 kts | 95° |
| 2026-04-20 15:05 | 23.18398 | 76.00716 | 36914 ft | 539 kts | 95° |
| 2026-04-20 15:05 | 23.18861 | 76.08884 | 36910 ft | 543 kts | 89° |
| 2026-04-20 15:06 | 23.19629 | 76.17010 | 36902 ft | 544 kts | 89° |
| 2026-04-20 15:06 | 23.20350 | 76.25192 | 36898 ft | 544 kts | 90° |
| 2026-04-20 15:07 | 23.20999 | 76.33407 | 36888 ft | 545 kts | 90° |
| 2026-04-20 15:07 | 23.21620 | 76.41618 | 36889 ft | 545 kts | 90° |
| 2026-04-20 15:08 | 23.22238 | 76.49842 | 36885 ft | 546 kts | 90° |
| 2026-04-20 15:08 | 23.22854 | 76.58063 | 36884 ft | 546 kts | 90° |
| 2026-04-20 15:09 | 23.23468 | 76.66299 | 36879 ft | 546 kts | 90° |
| 2026-04-20 15:09 | 23.24078 | 76.74537 | 36875 ft | 547 kts | 90° |
| 2026-04-20 15:10 | 23.24685 | 76.82786 | 36870 ft | 547 kts | 90° |
| 2026-04-20 15:10 | 23.25287 | 76.91046 | 36868 ft | 548 kts | 90° |
| 2026-04-20 15:11 | 23.25886 | 76.99305 | 36864 ft | 548 kts | 90° |
| 2026-04-20 15:11 | 23.26477 | 77.07514 | 36859 ft | 548 kts | 91° |
| 2026-04-20 15:12 | 23.27067 | 77.15780 | 36859 ft | 549 kts | 91° |
| 2026-04-20 15:12 | 23.27655 | 77.24070 | 36854 ft | 549 kts | 91° |
| 2026-04-20 15:13 | 23.28216 | 77.32349 | 36843 ft | 548 kts | 93° |
| 2026-04-20 15:13 | 23.28075 | 77.40593 | 36843 ft | 544 kts | 98° |
| 2026-04-20 15:14 | 23.27739 | 77.48806 | 36842 ft | 544 kts | 99° |
| 2026-04-20 15:14 | 23.27378 | 77.57023 | 36837 ft | 544 kts | 99° |
| 2026-04-20 15:15 | 23.27022 | 77.65255 | 36835 ft | 545 kts | 99° |
| 2026-04-20 15:15 | 23.26669 | 77.73498 | 36826 ft | 546 kts | 99° |
| 2026-04-20 15:16 | 23.26315 | 77.81743 | 36823 ft | 546 kts | 99° |
| 2026-04-20 15:16 | 23.25958 | 77.90006 | 36820 ft | 547 kts | 99° |
| 2026-04-20 15:17 | 23.25596 | 77.98203 | 36818 ft | 547 kts | 99° |
| 2026-04-20 15:17 | 23.25226 | 78.06469 | 36818 ft | 547 kts | 99° |
| 2026-04-20 15:18 | 23.24854 | 78.14742 | 36817 ft | 548 kts | 99° |
| 2026-04-20 15:18 | 23.24477 | 78.23021 | 36817 ft | 548 kts | 99° |
| 2026-04-20 15:19 | 23.24095 | 78.31295 | 36811 ft | 548 kts | 99° |
| 2026-04-20 15:19 | 23.23706 | 78.39581 | 36812 ft | 549 kts | 99° |
| 2026-04-20 15:20 | 23.23314 | 78.47865 | 36814 ft | 549 kts | 99° |
| 2026-04-20 15:20 | 23.22918 | 78.56167 | 36812 ft | 549 kts | 99° |
| 2026-04-20 15:21 | 23.22519 | 78.64413 | 36814 ft | 550 kts | 99° |
| 2026-04-20 15:21 | 23.22115 | 78.72718 | 36811 ft | 550 kts | 99° |
| 2026-04-20 15:22 | 23.21824 | 78.81050 | 36810 ft | 553 kts | 97° |
| 2026-04-20 15:22 | 23.21764 | 78.89415 | 36815 ft | 553 kts | 96° |
| 2026-04-20 15:23 | 23.21697 | 78.97775 | 36816 ft | 553 kts | 96° |
| 2026-04-20 15:23 | 23.21585 | 79.06120 | 36824 ft | 552 kts | 97° |
| 2026-04-20 15:24 | 23.21449 | 79.14472 | 36825 ft | 552 kts | 97° |
| 2026-04-20 15:24 | 23.21307 | 79.22824 | 36828 ft | 552 kts | 97° |
| 2026-04-20 15:25 | 23.21162 | 79.31181 | 36835 ft | 553 kts | 97° |
| 2026-04-20 15:25 | 23.21013 | 79.39541 | 36839 ft | 553 kts | 97° |
| 2026-04-20 15:26 | 23.20863 | 79.47840 | 36840 ft | 553 kts | 97° |
| 2026-04-20 15:26 | 23.20707 | 79.56204 | 36841 ft | 553 kts | 97° |
| 2026-04-20 15:27 | 23.20452 | 79.64537 | 36848 ft | 551 kts | 99° |
| 2026-04-20 15:27 | 23.20061 | 79.72869 | 36854 ft | 551 kts | 99° |
| 2026-04-20 15:28 | 23.19674 | 79.81188 | 36858 ft | 552 kts | 99° |
| 2026-04-20 15:28 | 23.19306 | 79.89522 | 36856 ft | 552 kts | 99° |
| 2026-04-20 15:29 | 23.18943 | 79.97860 | 36853 ft | 552 kts | 99° |
| 2026-04-20 15:29 | 23.18577 | 80.06197 | 36858 ft | 552 kts | 99° |
| 2026-04-20 15:30 | 23.18183 | 80.14473 | 36858 ft | 551 kts | 99° |
| 2026-04-20 15:30 | 23.17739 | 80.22787 | 36854 ft | 551 kts | 99° |
| 2026-04-20 15:31 | 23.17369 | 80.29695 | 36861 ft | 551 kts | 99° |
| 2026-04-20 15:31 | 23.16927 | 80.38013 | 36863 ft | 551 kts | 99° |
| 2026-04-20 15:32 | 23.16487 | 80.46330 | 36862 ft | 551 kts | 99° |
| 2026-04-20 15:32 | 23.16042 | 80.54628 | 36858 ft | 551 kts | 99° |
| 2026-04-20 15:33 | 23.15591 | 80.62941 | 36860 ft | 550 kts | 99° |
| 2026-04-20 15:33 | 23.15137 | 80.71242 | 36861 ft | 550 kts | 99° |
| 2026-04-20 15:34 | 23.14681 | 80.79548 | 36856 ft | 550 kts | 99° |
| 2026-04-20 15:34 | 23.14232 | 80.87849 | 36855 ft | 550 kts | 99° |
| 2026-04-20 15:35 | 23.13783 | 80.96156 | 36853 ft | 550 kts | 99° |
| 2026-04-20 15:35 | 23.13325 | 81.04462 | 36848 ft | 551 kts | 99° |
| 2026-04-20 15:36 | 23.12867 | 81.12711 | 36843 ft | 550 kts | 99° |
| 2026-04-20 15:36 | 23.12402 | 81.21005 | 36839 ft | 550 kts | 99° |
| 2026-04-20 15:37 | 23.11930 | 81.29300 | 36834 ft | 550 kts | 99° |
| 2026-04-20 15:37 | 23.11455 | 81.37596 | 36824 ft | 550 kts | 99° |
| 2026-04-20 15:38 | 23.10976 | 81.45885 | 36820 ft | 550 kts | 99° |
| 2026-04-20 15:38 | 23.10493 | 81.54168 | 36808 ft | 550 kts | 99° |
| 2026-04-20 15:39 | 23.10005 | 81.62469 | 36804 ft | 550 kts | 99° |
| 2026-04-20 15:39 | 23.09512 | 81.70771 | 36799 ft | 550 kts | 99° |
| 2026-04-20 15:40 | 23.09015 | 81.79068 | 36793 ft | 550 kts | 99° |
| 2026-04-20 15:40 | 23.08514 | 81.87362 | 36787 ft | 550 kts | 99° |
| 2026-04-20 15:41 | 23.08009 | 81.95654 | 36784 ft | 550 kts | 99° |
| 2026-04-20 15:41 | 23.07500 | 82.03946 | 36771 ft | 550 kts | 99° |
| 2026-04-20 15:42 | 23.06987 | 82.12229 | 36774 ft | 550 kts | 99° |
| 2026-04-20 15:42 | 23.06493 | 82.20452 | 36756 ft | 549 kts | 98° |
| 2026-04-20 15:43 | 23.06141 | 82.28735 | 36756 ft | 549 kts | 98° |
| 2026-04-20 15:43 | 23.05820 | 82.37018 | 36758 ft | 548 kts | 98° |
| 2026-04-20 15:44 | 23.05471 | 82.45283 | 36745 ft | 547 kts | 98° |
| 2026-04-20 15:44 | 23.05103 | 82.53541 | 36755 ft | 547 kts | 98° |
| 2026-04-20 15:45 | 23.04728 | 82.61808 | 36760 ft | 547 kts | 98° |
| 2026-04-20 15:45 | 23.04350 | 82.70050 | 36762 ft | 547 kts | 98° |
| 2026-04-20 15:46 | 23.03969 | 82.78301 | 36772 ft | 547 kts | 98° |
| 2026-04-20 15:46 | 23.03583 | 82.86560 | 36778 ft | 547 kts | 98° |
| 2026-04-20 15:47 | 23.03194 | 82.94807 | 36785 ft | 547 kts | 98° |
| 2026-04-20 15:47 | 23.02799 | 83.03054 | 36794 ft | 547 kts | 98° |
| 2026-04-20 15:48 | 23.02401 | 83.11301 | 36801 ft | 547 kts | 98° |
| 2026-04-20 15:48 | 23.02002 | 83.19489 | 36813 ft | 547 kts | 98° |
| 2026-04-20 15:49 | 23.01595 | 83.27726 | 36820 ft | 547 kts | 98° |
| 2026-04-20 15:49 | 23.01185 | 83.35964 | 36828 ft | 546 kts | 98° |
| 2026-04-20 15:50 | 23.00770 | 83.44191 | 36840 ft | 546 kts | 98° |
| 2026-04-20 15:50 | 23.00350 | 83.52434 | 36843 ft | 546 kts | 98° |
| 2026-04-20 15:51 | 22.99926 | 83.60667 | 36848 ft | 546 kts | 98° |
| 2026-04-20 15:51 | 22.99498 | 83.68900 | 36857 ft | 546 kts | 98° |
| 2026-04-20 15:52 | 22.99068 | 83.77123 | 36861 ft | 546 kts | 98° |
| 2026-04-20 15:52 | 22.98632 | 83.85354 | 36864 ft | 546 kts | 98° |
| 2026-04-20 15:53 | 22.97968 | 83.97693 | 36870 ft | 546 kts | 98° |
| 2026-04-20 15:53 | 22.97523 | 84.05913 | 36876 ft | 546 kts | 99° |
| 2026-04-20 15:54 | 22.97073 | 84.14136 | 36873 ft | 546 kts | 99° |
| 2026-04-20 15:54 | 22.96525 | 84.22340 | 36877 ft | 544 kts | 100° |
| 2026-04-20 15:55 | 22.95896 | 84.30517 | 36879 ft | 544 kts | 100° |
| 2026-04-20 15:55 | 22.95279 | 84.38691 | 36876 ft | 543 kts | 100° |
| 2026-04-20 15:56 | 22.94679 | 84.46813 | 36880 ft | 543 kts | 100° |
| 2026-04-20 15:56 | 22.94076 | 84.54976 | 36879 ft | 543 kts | 100° |
| 2026-04-20 15:57 | 22.93470 | 84.63134 | 36880 ft | 543 kts | 100° |
| 2026-04-20 15:57 | 22.92859 | 84.71297 | 36887 ft | 543 kts | 100° |
| 2026-04-20 15:58 | 22.92243 | 84.79455 | 36882 ft | 543 kts | 100° |
| 2026-04-20 15:58 | 22.91623 | 84.87614 | 36883 ft | 543 kts | 100° |
| 2026-04-20 15:59 | 22.90999 | 84.95772 | 36893 ft | 542 kts | 100° |
| 2026-04-20 15:59 | 22.90371 | 85.03921 | 36885 ft | 542 kts | 100° |
| 2026-04-20 16:00 | 22.89741 | 85.12069 | 36888 ft | 542 kts | 100° |
| 2026-04-20 16:00 | 22.89115 | 85.20203 | 36893 ft | 541 kts | 100° |
| 2026-04-20 16:01 | 22.88492 | 85.28246 | 36883 ft | 541 kts | 100° |
| 2026-04-20 16:01 | 22.87859 | 85.36365 | 36887 ft | 540 kts | 100° |
| 2026-04-20 16:02 | 22.87222 | 85.44482 | 36881 ft | 540 kts | 100° |
| 2026-04-20 16:02 | 22.86581 | 85.52583 | 36878 ft | 539 kts | 100° |
| 2026-04-20 16:03 | 22.85943 | 85.60624 | 36871 ft | 539 kts | 100° |
| 2026-04-20 16:03 | 22.85294 | 85.68709 | 36869 ft | 538 kts | 100° |
| 2026-04-20 16:04 | 22.84646 | 85.76783 | 36859 ft | 537 kts | 100° |
| 2026-04-20 16:04 | 22.83994 | 85.84853 | 36846 ft | 537 kts | 100° |
| 2026-04-20 16:05 | 22.83339 | 85.92911 | 36837 ft | 537 kts | 100° |
| 2026-04-20 16:05 | 22.82678 | 86.00964 | 36833 ft | 537 kts | 100° |
| 2026-04-20 16:06 | 22.82013 | 86.09025 | 36826 ft | 536 kts | 100° |
| 2026-04-20 16:06 | 22.81345 | 86.17086 | 36816 ft | 536 kts | 99° |
| 2026-04-20 16:07 | 22.80799 | 86.25168 | 36809 ft | 538 kts | 97° |
| 2026-04-20 16:07 | 22.80423 | 86.33210 | 36808 ft | 538 kts | 97° |
| 2026-04-20 16:08 | 22.80027 | 86.41309 | 36800 ft | 538 kts | 97° |
| 2026-04-20 16:08 | 22.79595 | 86.49398 | 36793 ft | 538 kts | 97° |
| 2026-04-20 16:09 | 22.79148 | 86.57486 | 36787 ft | 537 kts | 98° |
| 2026-04-20 16:09 | 22.78695 | 86.65577 | 36779 ft | 537 kts | 98° |
| 2026-04-20 16:10 | 22.78240 | 86.73660 | 36774 ft | 537 kts | 98° |
| 2026-04-20 16:10 | 22.77781 | 86.81735 | 36772 ft | 537 kts | 97° |
| 2026-04-20 16:11 | 22.77320 | 86.89811 | 36760 ft | 537 kts | 97° |
| 2026-04-20 16:11 | 22.76854 | 86.97878 | 36755 ft | 536 kts | 97° |
| 2026-04-20 16:12 | 22.76387 | 87.05887 | 36752 ft | 536 kts | 97° |
| 2026-04-20 16:12 | 22.75913 | 87.13952 | 36743 ft | 536 kts | 97° |
| 2026-04-20 16:13 | 22.75435 | 87.22019 | 36744 ft | 536 kts | 97° |
| 2026-04-20 16:13 | 22.74953 | 87.30072 | 36742 ft | 536 kts | 97° |
| 2026-04-20 16:14 | 22.74467 | 87.38135 | 36741 ft | 536 kts | 97° |
| 2026-04-20 16:14 | 22.73977 | 87.46195 | 36737 ft | 535 kts | 97° |
| 2026-04-20 16:15 | 22.73487 | 87.54187 | 36738 ft | 535 kts | 97° |
| 2026-04-20 16:15 | 22.72989 | 87.62231 | 36741 ft | 535 kts | 97° |
| 2026-04-20 16:16 | 22.72487 | 87.70286 | 36736 ft | 535 kts | 97° |
| 2026-04-20 16:16 | 22.71982 | 87.78323 | 36738 ft | 535 kts | 97° |
| 2026-04-20 16:17 | 22.71472 | 87.86368 | 36737 ft | 535 kts | 97° |
| 2026-04-20 16:17 | 22.70959 | 87.94414 | 36732 ft | 535 kts | 97° |
| 2026-04-20 16:18 | 22.70442 | 88.02461 | 36737 ft | 536 kts | 97° |
| 2026-04-20 16:18 | 22.70008 | 88.09154 | 36743 ft | 536 kts | 97° |
| 2026-04-20 16:19 | 22.69482 | 88.17215 | 36753 ft | 537 kts | 97° |
| 2026-04-20 16:19 | 22.68952 | 88.25272 | 36761 ft | 537 kts | 97° |
| 2026-04-20 16:20 | 22.68416 | 88.33354 | 36771 ft | 537 kts | 97° |
| 2026-04-20 16:20 | 22.67877 | 88.41425 | 36773 ft | 537 kts | 97° |
| 2026-04-20 16:21 | 22.66894 | 88.49414 | 36772 ft | 534 kts | 103° |
| 2026-04-20 16:21 | 22.65601 | 88.57339 | 36771 ft | 534 kts | 104° |
| 2026-04-20 16:22 | 22.64271 | 88.65199 | 36764 ft | 534 kts | 104° |
| 2026-04-20 16:22 | 22.62938 | 88.73102 | 36758 ft | 534 kts | 103° |
| 2026-04-20 16:23 | 22.61601 | 88.81062 | 36756 ft | 534 kts | 103° |
| 2026-04-20 16:23 | 22.60281 | 88.88911 | 36759 ft | 534 kts | 103° |
| 2026-04-20 16:24 | 22.58972 | 88.96823 | 36759 ft | 534 kts | 101° |
| 2026-04-20 16:24 | 22.58067 | 89.04819 | 36762 ft | 535 kts | 98° |
| 2026-04-20 16:25 | 22.57303 | 89.12832 | 36766 ft | 535 kts | 98° |
| 2026-04-20 16:25 | 22.56475 | 89.20825 | 36768 ft | 534 kts | 98° |
| 2026-04-20 16:26 | 22.55597 | 89.28808 | 36771 ft | 534 kts | 99° |
| 2026-04-20 16:26 | 22.54702 | 89.36791 | 36773 ft | 534 kts | 99° |
| 2026-04-20 16:27 | 22.53805 | 89.44776 | 36776 ft | 534 kts | 99° |
| 2026-04-20 16:27 | 22.52911 | 89.52714 | 36778 ft | 534 kts | 99° |
| 2026-04-20 16:28 | 22.52010 | 89.60687 | 36780 ft | 535 kts | 99° |
| 2026-04-20 16:28 | 22.51104 | 89.68668 | 36782 ft | 535 kts | 99° |
| 2026-04-20 16:29 | 22.50194 | 89.76656 | 36786 ft | 535 kts | 99° |
| 2026-04-20 16:29 | 22.49279 | 89.84634 | 36790 ft | 535 kts | 99° |
| 2026-04-20 16:30 | 22.48360 | 89.92626 | 36787 ft | 535 kts | 99° |
| 2026-04-20 16:30 | 22.47438 | 90.00613 | 36807 ft | 535 kts | 100° |
| 2026-04-20 16:31 | 22.46502 | 90.08681 | 36798 ft | 546 kts | 100° |
| 2026-04-20 16:31 | 22.45545 | 90.16847 | 36799 ft | 548 kts | 100° |
| 2026-04-20 16:32 | 22.44586 | 90.25036 | 36803 ft | 548 kts | 100° |
| 2026-04-20 16:32 | 22.43627 | 90.33199 | 36807 ft | 548 kts | 100° |
| 2026-04-20 16:33 | 22.42661 | 90.41374 | 36813 ft | 548 kts | 100° |
| 2026-04-20 16:33 | 22.41699 | 90.49485 | 36814 ft | 548 kts | 100° |
| 2026-04-20 16:34 | 22.40726 | 90.57652 | 36817 ft | 548 kts | 100° |
| 2026-04-20 16:34 | 22.39749 | 90.65815 | 36821 ft | 547 kts | 100° |
| 2026-04-20 16:35 | 22.38768 | 90.73973 | 36824 ft | 547 kts | 100° |
| 2026-04-20 16:35 | 22.37784 | 90.82126 | 36830 ft | 547 kts | 100° |
| 2026-04-20 16:36 | 22.36795 | 90.90282 | 36828 ft | 547 kts | 100° |
| 2026-04-20 16:36 | 22.35802 | 90.98434 | 36830 ft | 547 kts | 100° |
| 2026-04-20 16:37 | 22.34807 | 91.06573 | 36832 ft | 546 kts | 100° |
| 2026-04-20 16:37 | 22.33808 | 91.14708 | 36830 ft | 546 kts | 100° |
| 2026-04-20 16:38 | 22.32805 | 91.22841 | 36827 ft | 546 kts | 100° |
| 2026-04-20 16:38 | 22.31799 | 91.30963 | 36823 ft | 545 kts | 100° |
| 2026-04-20 16:39 | 22.30790 | 91.39083 | 36826 ft | 545 kts | 100° |
| 2026-04-20 16:39 | 22.29838 | 91.47209 | 36819 ft | 545 kts | 99° |
| 2026-04-20 16:40 | 22.28935 | 91.55292 | 36826 ft | 545 kts | 99° |
| 2026-04-20 16:40 | 22.28013 | 91.63425 | 36826 ft | 545 kts | 99° |
| 2026-04-20 16:41 | 22.27078 | 91.71549 | 36828 ft | 545 kts | 99° |
| 2026-04-20 16:41 | 22.26148 | 91.79684 | 36825 ft | 546 kts | 98° |
| 2026-04-20 16:42 | 22.26071 | 91.83787 | 36829 ft | 548 kts | 86° |
| 2026-04-20 16:42 | 22.26470 | 91.87877 | 36828 ft | 548 kts | 83° |
| 2026-04-20 16:42 | 22.27561 | 91.96030 | 36828 ft | 549 kts | 81° |
| 2026-04-20 16:43 | 22.28731 | 92.04116 | 36828 ft | 549 kts | 81° |
| 2026-04-20 16:43 | 22.29887 | 92.12269 | 36830 ft | 549 kts | 82° |
| 2026-04-20 16:44 | 22.31017 | 92.20413 | 36835 ft | 548 kts | 82° |
| 2026-04-20 16:44 | 22.32136 | 92.28561 | 36841 ft | 549 kts | 82° |
| 2026-04-20 16:45 | 22.33257 | 92.36726 | 36845 ft | 549 kts | 82° |
| 2026-04-20 16:45 | 22.34366 | 92.44882 | 36855 ft | 549 kts | 82° |
| 2026-04-20 16:46 | 22.35472 | 92.53042 | 36856 ft | 549 kts | 82° |
| 2026-04-20 16:46 | 22.36579 | 92.61213 | 36865 ft | 549 kts | 82° |
| 2026-04-20 16:47 | 22.37674 | 92.69328 | 36873 ft | 550 kts | 82° |
| 2026-04-20 16:47 | 22.38774 | 92.77495 | 36880 ft | 549 kts | 81° |
| 2026-04-20 16:48 | 22.39877 | 92.85652 | 36894 ft | 549 kts | 82° |
| 2026-04-20 16:48 | 22.40973 | 92.93823 | 36911 ft | 550 kts | 82° |
| 2026-04-20 16:49 | 22.42067 | 93.02000 | 36921 ft | 550 kts | 82° |
| 2026-04-20 16:49 | 22.43159 | 93.10201 | 36932 ft | 551 kts | 82° |
| 2026-04-20 16:50 | 22.44250 | 93.18397 | 36957 ft | 550 kts | 81° |
| 2026-04-20 16:50 | 22.45341 | 93.26603 | 36951 ft | 551 kts | 82° |
| 2026-04-20 16:51 | 22.46416 | 93.34821 | 36966 ft | 552 kts | 81° |
| 2026-04-20 16:51 | 22.47492 | 93.43050 | 36963 ft | 553 kts | 81° |
| 2026-04-20 16:52 | 22.48569 | 93.51287 | 36950 ft | 553 kts | 82° |
| 2026-04-20 16:52 | 22.49644 | 93.59542 | 36933 ft | 554 kts | 82° |
| 2026-04-20 16:53 | 22.50709 | 93.67733 | 36909 ft | 553 kts | 81° |
| 2026-04-20 16:53 | 22.51784 | 93.75990 | 36892 ft | 554 kts | 82° |
| 2026-04-20 16:54 | 22.52844 | 93.84240 | 36850 ft | 553 kts | 82° |
| 2026-04-20 16:54 | 22.53896 | 93.92478 | 36829 ft | 553 kts | 82° |
| 2026-04-20 16:55 | 22.54942 | 94.00712 | 36813 ft | 551 kts | 82° |
| 2026-04-20 16:55 | 22.55983 | 94.08935 | 36800 ft | 552 kts | 82° |
| 2026-04-20 16:56 | 22.57016 | 94.17116 | 36789 ft | 551 kts | 82° |
| 2026-04-20 16:56 | 22.58051 | 94.25336 | 36784 ft | 551 kts | 82° |
| 2026-04-20 16:57 | 22.59080 | 94.33543 | 36780 ft | 550 kts | 82° |
| 2026-04-20 16:57 | 22.60105 | 94.41750 | 36772 ft | 550 kts | 82° |
| 2026-04-20 16:58 | 22.61126 | 94.49961 | 36772 ft | 551 kts | 82° |
| 2026-04-20 16:58 | 22.62144 | 94.58183 | 36760 ft | 551 kts | 82° |
| 2026-04-20 16:59 | 22.63150 | 94.66350 | 36755 ft | 551 kts | 82° |
| 2026-04-20 16:59 | 22.64159 | 94.74575 | 36746 ft | 551 kts | 82° |
| 2026-04-20 17:00 | 22.65666 | 94.86918 | 36742 ft | 551 kts | 82° |
| 2026-04-20 17:01 | 22.66665 | 94.95141 | 36741 ft | 551 kts | 82° |
| 2026-04-20 17:01 | 22.67661 | 95.03374 | 36735 ft | 551 kts | 82° |
| 2026-04-20 17:02 | 22.68646 | 95.11557 | 36734 ft | 551 kts | 82° |
| 2026-04-20 17:02 | 22.69632 | 95.19791 | 36731 ft | 551 kts | 82° |
| 2026-04-20 17:03 | 22.70615 | 95.28032 | 36733 ft | 551 kts | 82° |
| 2026-04-20 17:03 | 22.71594 | 95.36270 | 36731 ft | 551 kts | 82° |
| 2026-04-20 17:04 | 22.72550 | 95.44351 | 36730 ft | 550 kts | 82° |
| 2026-04-20 17:04 | 22.73522 | 95.52604 | 36730 ft | 550 kts | 82° |
| 2026-04-20 17:05 | 22.74485 | 95.60824 | 36731 ft | 550 kts | 82° |
| 2026-04-20 17:05 | 22.75445 | 95.69052 | 36733 ft | 550 kts | 82° |
| 2026-04-20 17:06 | 22.76239 | 95.75881 | 36733 ft | 549 kts | 82° |
| 2026-04-20 17:06 | 22.77343 | 95.85426 | 36743 ft | 549 kts | 82° |
| 2026-04-20 17:07 | 22.78286 | 95.93625 | 36755 ft | 548 kts | 82° |
| 2026-04-20 17:07 | 22.79068 | 96.00442 | 36764 ft | 548 kts | 82° |
| 2026-04-20 17:08 | 22.80003 | 96.08632 | 36777 ft | 547 kts | 82° |
| 2026-04-20 17:08 | 22.80933 | 96.16826 | 36789 ft | 547 kts | 82° |
| 2026-04-20 17:09 | 22.81857 | 96.25011 | 36798 ft | 547 kts | 82° |
| 2026-04-20 17:09 | 22.82777 | 96.33179 | 36821 ft | 546 kts | 82° |
| 2026-04-20 17:10 | 22.83692 | 96.41353 | 36827 ft | 546 kts | 82° |
| 2026-04-20 17:10 | 22.84602 | 96.49521 | 36838 ft | 546 kts | 82° |
| 2026-04-20 17:11 | 22.85506 | 96.57644 | 36841 ft | 545 kts | 82° |
| 2026-04-20 17:11 | 22.86409 | 96.65806 | 36841 ft | 545 kts | 82° |
| 2026-04-20 17:12 | 22.87307 | 96.73970 | 36842 ft | 545 kts | 82° |
| 2026-04-20 17:12 | 22.88199 | 96.82134 | 36842 ft | 545 kts | 82° |
| 2026-04-20 17:13 | 22.89088 | 96.90304 | 36847 ft | 546 kts | 82° |
| 2026-04-20 17:13 | 22.89972 | 96.98460 | 36845 ft | 545 kts | 82° |
| 2026-04-20 17:14 | 22.90854 | 97.06631 | 36848 ft | 545 kts | 82° |
| 2026-04-20 17:14 | 22.91730 | 97.14799 | 36847 ft | 545 kts | 82° |
| 2026-04-20 17:15 | 22.92606 | 97.22992 | 36845 ft | 546 kts | 82° |
| 2026-04-20 17:15 | 22.93475 | 97.31177 | 36834 ft | 546 kts | 82° |
| 2026-04-20 17:16 | 22.94341 | 97.39373 | 36837 ft | 547 kts | 82° |
| 2026-04-20 17:16 | 22.95202 | 97.47561 | 36834 ft | 546 kts | 82° |
| 2026-04-20 17:17 | 22.96053 | 97.55681 | 36828 ft | 545 kts | 82° |
| 2026-04-20 17:17 | 22.96906 | 97.63870 | 36827 ft | 545 kts | 82° |
| 2026-04-20 17:18 | 22.97757 | 97.72051 | 36823 ft | 545 kts | 83° |
| 2026-04-20 17:18 | 22.98478 | 97.76069 | 36830 ft | 542 kts | 71° |
| 2026-04-20 17:18 | 22.99640 | 97.79949 | 36833 ft | 540 kts | 68° |
| 2026-04-20 17:19 | 23.02211 | 97.87600 | 36840 ft | 539 kts | 66° |
| 2026-04-20 17:19 | 23.04863 | 97.95218 | 36846 ft | 539 kts | 66° |
| 2026-04-20 17:20 | 23.07478 | 98.02792 | 36852 ft | 538 kts | 66° |
| 2026-04-20 17:20 | 23.10084 | 98.10416 | 36860 ft | 538 kts | 67° |
| 2026-04-20 17:21 | 23.12677 | 98.18032 | 36861 ft | 538 kts | 67° |
| 2026-04-20 17:21 | 23.15265 | 98.25657 | 36873 ft | 537 kts | 67° |
| 2026-04-20 17:22 | 23.17849 | 98.33279 | 36857 ft | 537 kts | 66° |
| 2026-04-20 17:22 | 23.20431 | 98.40900 | 36866 ft | 537 kts | 67° |
| 2026-04-20 17:23 | 23.23009 | 98.48518 | 36861 ft | 537 kts | 67° |
| 2026-04-20 17:23 | 23.25586 | 98.56154 | 36855 ft | 536 kts | 67° |
| 2026-04-20 17:24 | 23.28135 | 98.63719 | 36861 ft | 536 kts | 67° |
| 2026-04-20 17:24 | 23.30693 | 98.71328 | 36855 ft | 534 kts | 67° |
| 2026-04-20 17:25 | 23.33244 | 98.78929 | 36866 ft | 535 kts | 67° |
| 2026-04-20 17:25 | 23.35793 | 98.86535 | 36865 ft | 535 kts | 67° |
| 2026-04-20 17:26 | 23.38331 | 98.94144 | 36871 ft | 535 kts | 67° |
| 2026-04-20 17:26 | 23.40747 | 99.01805 | 36878 ft | 535 kts | 69° |
| 2026-04-20 17:27 | 23.43107 | 99.09484 | 36879 ft | 534 kts | 69° |
| 2026-04-20 17:27 | 23.45476 | 99.17140 | 36882 ft | 534 kts | 68° |
| 2026-04-20 17:28 | 23.47862 | 99.24811 | 36892 ft | 534 kts | 68° |
| 2026-04-20 17:28 | 23.50244 | 99.32461 | 36893 ft | 533 kts | 68° |
| 2026-04-20 17:29 | 23.52683 | 99.40029 | 36892 ft | 531 kts | 63° |
| 2026-04-20 17:29 | 23.56104 | 99.47163 | 36900 ft | 527 kts | 57° |
| 2026-04-20 17:30 | 23.59705 | 99.54055 | 36901 ft | 526 kts | 56° |
| 2026-04-20 17:30 | 23.63356 | 99.60982 | 36900 ft | 526 kts | 56° |
| 2026-04-20 17:31 | 23.66986 | 99.67927 | 36902 ft | 526 kts | 56° |
| 2026-04-20 17:31 | 23.70599 | 99.74863 | 36901 ft | 525 kts | 56° |
| 2026-04-20 17:32 | 23.74204 | 99.81806 | 36903 ft | 526 kts | 56° |
| 2026-04-20 17:32 | 23.77810 | 99.88769 | 36908 ft | 526 kts | 56° |
| 2026-04-20 17:33 | 23.81382 | 99.95666 | 36906 ft | 525 kts | 56° |
| 2026-04-20 17:33 | 23.84979 | 100.02613 | 36905 ft | 526 kts | 56° |
| 2026-04-20 17:34 | 23.88573 | 100.09572 | 36907 ft | 525 kts | 56° |
| 2026-04-20 17:34 | 23.92155 | 100.16521 | 36899 ft | 525 kts | 56° |
| 2026-04-20 17:35 | 23.95733 | 100.23471 | 36896 ft | 525 kts | 56° |
| 2026-04-20 17:35 | 23.99312 | 100.30426 | 36884 ft | 524 kts | 56° |
| 2026-04-20 17:36 | 24.02885 | 100.37383 | 36890 ft | 525 kts | 56° |
| 2026-04-20 17:36 | 24.06455 | 100.44346 | 36884 ft | 524 kts | 56° |
| 2026-04-20 17:37 | 24.09999 | 100.51268 | 36883 ft | 525 kts | 56° |
| 2026-04-20 17:37 | 24.13558 | 100.58237 | 36875 ft | 524 kts | 57° |
| 2026-04-20 17:38 | 24.17070 | 100.65237 | 36871 ft | 524 kts | 57° |
| 2026-04-20 17:38 | 24.20567 | 100.72237 | 36869 ft | 523 kts | 57° |
| 2026-04-20 17:39 | 24.24063 | 100.79236 | 36872 ft | 524 kts | 57° |
| 2026-04-20 17:39 | 24.27565 | 100.86249 | 36866 ft | 524 kts | 57° |
| 2026-04-20 17:40 | 24.31065 | 100.93260 | 36865 ft | 524 kts | 57° |
| 2026-04-20 17:40 | 24.34558 | 101.00270 | 36865 ft | 524 kts | 57° |
| 2026-04-20 17:41 | 24.38052 | 101.07291 | 36856 ft | 524 kts | 57° |
| 2026-04-20 17:41 | 24.41517 | 101.14268 | 36857 ft | 524 kts | 57° |
| 2026-04-20 17:42 | 24.44997 | 101.21287 | 36848 ft | 523 kts | 57° |
| 2026-04-20 17:42 | 24.48468 | 101.28296 | 36844 ft | 522 kts | 57° |
| 2026-04-20 17:43 | 24.51935 | 101.35301 | 36841 ft | 523 kts | 57° |
| 2026-04-20 17:43 | 24.55404 | 101.42326 | 36838 ft | 523 kts | 57° |
| 2026-04-20 17:44 | 24.58858 | 101.49340 | 36804 ft | 522 kts | 57° |
| 2026-04-20 17:44 | 24.62319 | 101.56372 | 36826 ft | 524 kts | 57° |
| 2026-04-20 17:45 | 24.65759 | 101.63424 | 36827 ft | 523 kts | 58° |
| 2026-04-20 17:45 | 24.69160 | 101.70487 | 36829 ft | 522 kts | 58° |
| 2026-04-20 17:46 | 24.72561 | 101.77554 | 36828 ft | 522 kts | 58° |
| 2026-04-20 17:46 | 24.75942 | 101.84569 | 36827 ft | 522 kts | 58° |
| 2026-04-20 17:47 | 24.79341 | 101.91633 | 36808 ft | 521 kts | 58° |
| 2026-04-20 17:47 | 24.82731 | 101.98685 | 36830 ft | 521 kts | 58° |
| 2026-04-20 17:48 | 24.86115 | 102.05733 | 36807 ft | 521 kts | 58° |
| 2026-04-20 17:48 | 24.89496 | 102.12795 | 36830 ft | 520 kts | 58° |
| 2026-04-20 17:49 | 24.92871 | 102.19848 | 36814 ft | 520 kts | 58° |
| 2026-04-20 17:49 | 24.96243 | 102.26911 | 36817 ft | 521 kts | 58° |
| 2026-04-20 17:50 | 24.99614 | 102.33988 | 36834 ft | 522 kts | 58° |
| 2026-04-20 17:50 | 25.02990 | 102.41079 | 36831 ft | 522 kts | 58° |
| 2026-04-20 17:51 | 25.05538 | 102.48548 | 36837 ft | 530 kts | 77° |
| 2026-04-20 17:51 | 25.05895 | 102.52600 | 36840 ft | 532 kts | 90° |
| 2026-04-20 17:51 | 25.05521 | 102.56648 | 36846 ft | 533 kts | 103° |
| 2026-04-20 17:51 | 25.04419 | 102.60542 | 36882 ft | 531 kts | 115° |
| 2026-04-20 17:52 | 25.02903 | 102.64249 | 36907 ft | 531 kts | 117° |
| 2026-04-20 17:52 | 24.99629 | 102.71546 | 36965 ft | 531 kts | 119° |
| 2026-04-20 17:53 | 24.96314 | 102.78828 | 36993 ft | 531 kts | 118° |
| 2026-04-20 17:53 | 24.93039 | 102.86125 | 37004 ft | 531 kts | 118° |
| 2026-04-20 17:54 | 24.89814 | 102.93432 | 36981 ft | 530 kts | 117° |
| 2026-04-20 17:54 | 24.86643 | 103.00714 | 36948 ft | 530 kts | 117° |
| 2026-04-20 17:55 | 24.83450 | 103.08029 | 36888 ft | 529 kts | 117° |
| 2026-04-20 17:55 | 24.80253 | 103.15323 | 36823 ft | 529 kts | 117° |
| 2026-04-20 17:56 | 24.77043 | 103.22623 | 36828 ft | 529 kts | 117° |
| 2026-04-20 17:56 | 24.74375 | 103.28683 | 36828 ft | 529 kts | 117° |
| 2026-04-20 17:57 | 24.71168 | 103.35955 | 36829 ft | 529 kts | 117° |
| 2026-04-20 17:57 | 24.67955 | 103.43233 | 36830 ft | 528 kts | 117° |
| 2026-04-20 17:58 | 24.64746 | 103.50490 | 36838 ft | 528 kts | 117° |
| 2026-04-20 17:58 | 24.61533 | 103.57741 | 36827 ft | 527 kts | 117° |
| 2026-04-20 17:59 | 24.58325 | 103.64971 | 36837 ft | 526 kts | 117° |
| 2026-04-20 17:59 | 24.55153 | 103.72157 | 36818 ft | 526 kts | 115° |
| 2026-04-20 18:00 | 24.52970 | 103.79819 | 36830 ft | 526 kts | 104° |
| 2026-04-20 18:00 | 24.51286 | 103.87628 | 36824 ft | 526 kts | 103° |
| 2026-04-20 18:01 | 24.49656 | 103.95455 | 36825 ft | 525 kts | 103° |
| 2026-04-20 18:01 | 24.48010 | 104.03255 | 36820 ft | 524 kts | 103° |
| 2026-04-20 18:02 | 24.46346 | 104.11038 | 36810 ft | 523 kts | 103° |
| 2026-04-20 18:02 | 24.44678 | 104.18805 | 36818 ft | 522 kts | 103° |
| 2026-04-20 18:03 | 24.43006 | 104.26560 | 36804 ft | 522 kts | 103° |
| 2026-04-20 18:03 | 24.41333 | 104.34308 | 36808 ft | 522 kts | 104° |
| 2026-04-20 18:04 | 24.39656 | 104.42052 | 36803 ft | 521 kts | 103° |
| 2026-04-20 18:04 | 24.37976 | 104.49792 | 36800 ft | 521 kts | 104° |
| 2026-04-20 18:05 | 24.35453 | 104.61375 | 36800 ft | 521 kts | 104° |
| 2026-04-20 18:05 | 24.33766 | 104.69096 | 36797 ft | 520 kts | 104° |
| 2026-04-20 18:06 | 24.32089 | 104.76758 | 36799 ft | 520 kts | 104° |
| 2026-04-20 18:06 | 24.30395 | 104.84468 | 36800 ft | 520 kts | 103° |
| 2026-04-20 18:07 | 24.28700 | 104.92171 | 36798 ft | 520 kts | 104° |
| 2026-04-20 18:07 | 24.27000 | 104.99870 | 36800 ft | 519 kts | 104° |
| 2026-04-20 18:08 | 24.25299 | 105.07560 | 36800 ft | 519 kts | 104° |
| 2026-04-20 18:08 | 24.23592 | 105.15263 | 36800 ft | 520 kts | 104° |
| 2026-04-20 18:09 | 24.21881 | 105.22959 | 36801 ft | 520 kts | 103° |
| 2026-04-20 18:09 | 24.20069 | 105.30613 | 36795 ft | 519 kts | 105° |
| 2026-04-20 18:10 | 24.18179 | 105.38250 | 36800 ft | 520 kts | 105° |
| 2026-04-20 18:10 | 24.16302 | 105.45895 | 36795 ft | 520 kts | 105° |
| 2026-04-20 18:11 | 24.14436 | 105.53548 | 36794 ft | 520 kts | 104° |
| 2026-04-20 18:11 | 24.12574 | 105.61205 | 36796 ft | 520 kts | 104° |
| 2026-04-20 18:12 | 24.10703 | 105.68864 | 36795 ft | 521 kts | 104° |
| 2026-04-20 18:12 | 24.08956 | 105.76573 | 36792 ft | 522 kts | 101° |
| 2026-04-20 18:13 | 24.07488 | 105.84340 | 36789 ft | 522 kts | 101° |
| 2026-04-20 18:13 | 24.06026 | 105.92058 | 36787 ft | 520 kts | 101° |
| 2026-04-20 18:14 | 24.04507 | 105.99793 | 36783 ft | 520 kts | 101° |
| 2026-04-20 18:14 | 24.02967 | 106.07508 | 36789 ft | 519 kts | 101° |
| 2026-04-20 18:15 | 24.01420 | 106.15221 | 36787 ft | 518 kts | 101° |
| 2026-04-20 18:15 | 23.99871 | 106.22919 | 36791 ft | 518 kts | 101° |
| 2026-04-20 18:16 | 23.98321 | 106.30623 | 36790 ft | 518 kts | 101° |
| 2026-04-20 18:16 | 23.96768 | 106.38315 | 36794 ft | 518 kts | 101° |
| 2026-04-20 18:17 | 23.95210 | 106.46012 | 36795 ft | 518 kts | 101° |
| 2026-04-20 18:17 | 23.93648 | 106.53704 | 36802 ft | 518 kts | 101° |
| 2026-04-20 18:18 | 23.92310 | 106.61416 | 36807 ft | 515 kts | 93° |
| 2026-04-20 18:18 | 23.91705 | 106.69164 | 36808 ft | 515 kts | 92° |
| 2026-04-20 18:19 | 23.91204 | 106.76959 | 36813 ft | 514 kts | 92° |
| 2026-04-20 18:19 | 23.90703 | 106.84754 | 36819 ft | 514 kts | 92° |
| 2026-04-20 18:20 | 23.90187 | 106.92551 | 36821 ft | 513 kts | 92° |
| 2026-04-20 18:20 | 23.89660 | 107.00328 | 36825 ft | 513 kts | 92° |
| 2026-04-20 18:21 | 23.89128 | 107.08110 | 36826 ft | 513 kts | 92° |
| 2026-04-20 18:21 | 23.88595 | 107.15869 | 36829 ft | 512 kts | 92° |
| 2026-04-20 18:22 | 23.88060 | 107.23623 | 36835 ft | 512 kts | 92° |
| 2026-04-20 18:22 | 23.87522 | 107.31320 | 36840 ft | 511 kts | 93° |
| 2026-04-20 18:23 | 23.86976 | 107.39070 | 36837 ft | 511 kts | 93° |
| 2026-04-20 18:23 | 23.86427 | 107.46816 | 36841 ft | 511 kts | 93° |
| 2026-04-20 18:24 | 23.85875 | 107.54562 | 36846 ft | 511 kts | 93° |
| 2026-04-20 18:24 | 23.85319 | 107.62304 | 36852 ft | 512 kts | 93° |
| 2026-04-20 18:25 | 23.84759 | 107.70053 | 36846 ft | 512 kts | 93° |
| 2026-04-20 18:25 | 23.84196 | 107.77803 | 36857 ft | 512 kts | 93° |
| 2026-04-20 18:26 | 23.83629 | 107.85552 | 36864 ft | 512 kts | 93° |
| 2026-04-20 18:26 | 23.83175 | 107.93305 | 36856 ft | 511 kts | 91° |
| 2026-04-20 18:27 | 23.82830 | 108.01059 | 36860 ft | 511 kts | 91° |
| 2026-04-20 18:27 | 23.82463 | 108.08825 | 36867 ft | 511 kts | 91° |
| 2026-04-20 18:28 | 23.82069 | 108.16549 | 36859 ft | 512 kts | 92° |
| 2026-04-20 18:28 | 23.81650 | 108.24302 | 36864 ft | 512 kts | 92° |
| 2026-04-20 18:29 | 23.81207 | 108.32059 | 36869 ft | 511 kts | 92° |
| 2026-04-20 18:29 | 23.80764 | 108.39806 | 36874 ft | 511 kts | 92° |
| 2026-04-20 18:30 | 23.80319 | 108.47569 | 36861 ft | 511 kts | 92° |
| 2026-04-20 18:30 | 23.79876 | 108.55312 | 36870 ft | 511 kts | 92° |
| 2026-04-20 18:31 | 23.79428 | 108.63058 | 36873 ft | 511 kts | 92° |
| 2026-04-20 18:31 | 23.78979 | 108.70763 | 36876 ft | 511 kts | 92° |
| 2026-04-20 18:32 | 23.78521 | 108.78517 | 36876 ft | 511 kts | 92° |
| 2026-04-20 18:32 | 23.78060 | 108.86257 | 36868 ft | 511 kts | 92° |
| 2026-04-20 18:33 | 23.77596 | 108.93995 | 36874 ft | 511 kts | 92° |
| 2026-04-20 18:33 | 23.77127 | 109.01747 | 36877 ft | 511 kts | 92° |
| 2026-04-20 18:34 | 23.76655 | 109.09486 | 36867 ft | 512 kts | 92° |
| 2026-04-20 18:34 | 23.75806 | 109.17194 | 36874 ft | 513 kts | 100° |
| 2026-04-20 18:35 | 23.74335 | 109.24826 | 36872 ft | 513 kts | 102° |
| 2026-04-20 18:35 | 23.72782 | 109.32437 | 36866 ft | 513 kts | 102° |
| 2026-04-20 18:36 | 23.71228 | 109.40042 | 36871 ft | 513 kts | 102° |
| 2026-04-20 18:36 | 23.69683 | 109.47648 | 36878 ft | 514 kts | 101° |
| 2026-04-20 18:37 | 23.68148 | 109.55208 | 36871 ft | 514 kts | 102° |
| 2026-04-20 18:37 | 23.66599 | 109.62828 | 36884 ft | 514 kts | 101° |
| 2026-04-20 18:38 | 23.65040 | 109.70437 | 36881 ft | 514 kts | 102° |
| 2026-04-20 18:38 | 23.63464 | 109.78041 | 36882 ft | 514 kts | 102° |
| 2026-04-20 18:39 | 23.61886 | 109.85641 | 36888 ft | 514 kts | 102° |
| 2026-04-20 18:39 | 23.60329 | 109.93139 | 36889 ft | 514 kts | 102° |
| 2026-04-20 18:40 | 23.58770 | 110.00635 | 36886 ft | 514 kts | 102° |
| 2026-04-20 18:40 | 23.57197 | 110.08180 | 36882 ft | 514 kts | 102° |
| 2026-04-20 18:41 | 23.55611 | 110.15766 | 36888 ft | 513 kts | 102° |
| 2026-04-20 18:41 | 23.54018 | 110.23361 | 36887 ft | 513 kts | 102° |
| 2026-04-20 18:42 | 23.52424 | 110.30945 | 36879 ft | 513 kts | 102° |
| 2026-04-20 18:42 | 23.50832 | 110.38525 | 36882 ft | 513 kts | 101° |
| 2026-04-20 18:43 | 23.49289 | 110.46107 | 36882 ft | 513 kts | 101° |
| 2026-04-20 18:43 | 23.47755 | 110.53695 | 36886 ft | 512 kts | 101° |
| 2026-04-20 18:44 | 23.46213 | 110.61281 | 36885 ft | 512 kts | 101° |
| 2026-04-20 18:44 | 23.44675 | 110.68803 | 36880 ft | 512 kts | 101° |
| 2026-04-20 18:45 | 23.43122 | 110.76375 | 36879 ft | 512 kts | 101° |
| 2026-04-20 18:45 | 23.41522 | 110.83944 | 36885 ft | 512 kts | 102° |
| 2026-04-20 18:46 | 23.40183 | 110.90225 | 36882 ft | 512 kts | 102° |
| 2026-04-20 18:46 | 23.38577 | 110.97778 | 36890 ft | 512 kts | 102° |
| 2026-04-20 18:47 | 23.36974 | 111.05329 | 36883 ft | 512 kts | 102° |
| 2026-04-20 18:47 | 23.35365 | 111.12890 | 36886 ft | 512 kts | 102° |
| 2026-04-20 18:48 | 23.33781 | 111.20446 | 36887 ft | 512 kts | 101° |
| 2026-04-20 18:48 | 23.32245 | 111.28008 | 36897 ft | 512 kts | 101° |
| 2026-04-20 18:49 | 23.30708 | 111.35563 | 36891 ft | 511 kts | 101° |
| 2026-04-20 18:49 | 23.29161 | 111.43111 | 36889 ft | 511 kts | 101° |
| 2026-04-20 18:50 | 23.27606 | 111.50655 | 36894 ft | 511 kts | 101° |
| 2026-04-20 18:50 | 23.26041 | 111.58194 | 36898 ft | 511 kts | 102° |
| 2026-04-20 18:51 | 23.24442 | 111.65726 | 36899 ft | 511 kts | 102° |
| 2026-04-20 18:51 | 23.22849 | 111.73198 | 36902 ft | 511 kts | 102° |
| 2026-04-20 18:52 | 23.21247 | 111.80721 | 36906 ft | 511 kts | 102° |
| 2026-04-20 18:52 | 23.19656 | 111.88257 | 36902 ft | 511 kts | 101° |
| 2026-04-20 18:53 | 23.18097 | 111.95786 | 36907 ft | 510 kts | 101° |
| 2026-04-20 18:53 | 23.16539 | 112.03309 | 36911 ft | 510 kts | 101° |
| 2026-04-20 18:54 | 23.14968 | 112.10836 | 36906 ft | 510 kts | 102° |
| 2026-04-20 18:54 | 23.13401 | 112.18311 | 36904 ft | 510 kts | 102° |
| 2026-04-20 18:55 | 23.11823 | 112.25823 | 36903 ft | 510 kts | 102° |
| 2026-04-20 18:55 | 23.10242 | 112.33334 | 36897 ft | 510 kts | 102° |
| 2026-04-20 18:56 | 23.08660 | 112.40830 | 36903 ft | 509 kts | 102° |
| 2026-04-20 18:56 | 23.07154 | 112.48353 | 36902 ft | 508 kts | 96° |
| 2026-04-20 18:57 | 23.06478 | 112.55982 | 36908 ft | 507 kts | 93° |
| 2026-04-20 18:57 | 23.05968 | 112.63630 | 36900 ft | 507 kts | 92° |
| 2026-04-20 18:58 | 23.05478 | 112.71215 | 36899 ft | 507 kts | 92° |
| 2026-04-20 18:58 | 23.04967 | 112.78858 | 36901 ft | 506 kts | 92° |
| 2026-04-20 18:59 | 23.04445 | 112.86478 | 36900 ft | 506 kts | 92° |
| 2026-04-20 18:59 | 23.03916 | 112.94102 | 36899 ft | 506 kts | 92° |
| 2026-04-20 19:00 | 23.03386 | 113.01713 | 36909 ft | 505 kts | 92° |
| 2026-04-20 19:00 | 23.02852 | 113.09321 | 36899 ft | 505 kts | 92° |
| 2026-04-20 19:01 | 23.01605 | 113.16814 | 36903 ft | 507 kts | 110° |
| 2026-04-20 19:01 | 23.00089 | 113.20260 | 36901 ft | 506 kts | 122° |
| 2026-04-20 19:01 | 22.97970 | 113.23290 | 36910 ft | 504 kts | 135° |
| 2026-04-20 19:02 | 22.92971 | 113.28632 | 36899 ft | 505 kts | 138° |
| 2026-04-20 19:02 | 22.87843 | 113.33774 | 36900 ft | 505 kts | 139° |
| 2026-04-20 19:03 | 22.82695 | 113.38962 | 36898 ft | 506 kts | 138° |
| 2026-04-20 19:03 | 22.77565 | 113.44187 | 36900 ft | 505 kts | 137° |
| 2026-04-20 19:04 | 22.72454 | 113.49410 | 36906 ft | 505 kts | 137° |
| 2026-04-20 19:04 | 22.67336 | 113.54637 | 36913 ft | 505 kts | 137° |
| 2026-04-20 19:05 | 22.62223 | 113.59849 | 36922 ft | 505 kts | 137° |
| 2026-04-20 19:05 | 22.57112 | 113.65052 | 36926 ft | 505 kts | 137° |
| 2026-04-20 19:06 | 22.51998 | 113.70254 | 36921 ft | 504 kts | 137° |
| 2026-04-20 19:06 | 22.46891 | 113.75443 | 36922 ft | 503 kts | 137° |
| 2026-04-20 19:07 | 22.41827 | 113.80582 | 36908 ft | 502 kts | 138° |
| 2026-04-20 19:07 | 22.36738 | 113.85741 | 36917 ft | 501 kts | 138° |
| 2026-04-20 19:08 | 22.29836 | 113.93397 | 36902 ft | 501 kts | 132° |
| 2026-04-20 19:09 | 22.25223 | 113.99033 | 36916 ft | 501 kts | 132° |
| 2026-04-20 19:09 | 22.20577 | 114.04638 | 36913 ft | 500 kts | 131° |
| 2026-04-20 19:10 | 22.16254 | 114.10506 | 36912 ft | 500 kts | 127° |
| 2026-04-20 19:10 | 22.12062 | 114.16497 | 36913 ft | 500 kts | 127° |
| 2026-04-20 19:11 | 22.07848 | 114.22399 | 36908 ft | 499 kts | 128° |
| 2026-04-20 19:11 | 22.03560 | 114.28302 | 36908 ft | 499 kts | 128° |
| 2026-04-20 19:12 | 21.99263 | 114.34185 | 36912 ft | 499 kts | 129° |
| 2026-04-20 19:12 | 21.94966 | 114.40063 | 36910 ft | 499 kts | 129° |
| 2026-04-20 19:13 | 21.90669 | 114.45940 | 36908 ft | 500 kts | 129° |
| 2026-04-20 19:13 | 21.86363 | 114.51824 | 36912 ft | 500 kts | 129° |
| 2026-04-20 19:14 | 21.82052 | 114.57708 | 36911 ft | 500 kts | 129° |
| 2026-04-20 19:14 | 21.77774 | 114.63542 | 36909 ft | 500 kts | 129° |
| 2026-04-20 19:15 | 21.73461 | 114.69416 | 36909 ft | 500 kts | 129° |
| 2026-04-20 19:15 | 21.69148 | 114.75285 | 36909 ft | 500 kts | 130° |
| 2026-04-20 19:16 | 21.64834 | 114.81147 | 36911 ft | 500 kts | 130° |
| 2026-04-20 19:16 | 21.60521 | 114.87003 | 36908 ft | 500 kts | 130° |
| 2026-04-20 19:17 | 21.56200 | 114.92863 | 36912 ft | 499 kts | 130° |
| 2026-04-20 19:17 | 21.51886 | 114.98707 | 36911 ft | 499 kts | 130° |
| 2026-04-20 19:18 | 21.47575 | 115.04541 | 36914 ft | 499 kts | 130° |
| 2026-04-20 19:18 | 21.43264 | 115.10369 | 36912 ft | 498 kts | 130° |
| 2026-04-20 19:19 | 21.38952 | 115.16192 | 36915 ft | 498 kts | 130° |
| 2026-04-20 19:19 | 21.34643 | 115.22005 | 36914 ft | 497 kts | 130° |
| 2026-04-20 19:20 | 21.30336 | 115.27809 | 36915 ft | 497 kts | 130° |
| 2026-04-20 19:20 | 21.26035 | 115.33612 | 36910 ft | 497 kts | 130° |
| 2026-04-20 19:21 | 21.22340 | 115.39843 | 36913 ft | 499 kts | 122° |
| 2026-04-20 19:21 | 21.18863 | 115.46327 | 36914 ft | 499 kts | 121° |
| 2026-04-20 19:22 | 21.15459 | 115.52750 | 36912 ft | 498 kts | 121° |
| 2026-04-20 19:22 | 21.12029 | 115.59189 | 36910 ft | 498 kts | 122° |
| 2026-04-20 19:23 | 21.08583 | 115.65626 | 36913 ft | 497 kts | 122° |
| 2026-04-20 19:23 | 21.05135 | 115.72051 | 36913 ft | 497 kts | 122° |
| 2026-04-20 19:24 | 21.01686 | 115.78471 | 36913 ft | 497 kts | 122° |
| 2026-04-20 19:24 | 20.98238 | 115.84883 | 36913 ft | 497 kts | 122° |
| 2026-04-20 19:25 | 20.94788 | 115.91293 | 36910 ft | 497 kts | 122° |
| 2026-04-20 19:25 | 20.91361 | 115.97652 | 36914 ft | 496 kts | 122° |
| 2026-04-20 19:26 | 20.87908 | 116.04052 | 36914 ft | 496 kts | 122° |
| 2026-04-20 19:26 | 20.83908 | 116.09991 | 36916 ft | 489 kts | 139° |
| 2026-04-20 19:27 | 20.78539 | 116.14316 | 36908 ft | 482 kts | 150° |
| 2026-04-20 19:27 | 20.72879 | 116.18149 | 36916 ft | 481 kts | 152° |
| 2026-04-20 19:28 | 20.67203 | 116.21922 | 36918 ft | 481 kts | 152° |
| 2026-04-20 19:28 | 20.61536 | 116.25726 | 36913 ft | 481 kts | 152° |
| 2026-04-20 19:29 | 20.55886 | 116.29543 | 36915 ft | 480 kts | 152° |
| 2026-04-20 19:29 | 20.50246 | 116.33358 | 36915 ft | 480 kts | 152° |
| 2026-04-20 19:30 | 20.44604 | 116.37168 | 36917 ft | 479 kts | 152° |
| 2026-04-20 19:30 | 20.39011 | 116.40941 | 36916 ft | 479 kts | 152° |
| 2026-04-20 19:31 | 20.33382 | 116.44734 | 36916 ft | 478 kts | 152° |
| 2026-04-20 19:31 | 20.27752 | 116.48524 | 36916 ft | 478 kts | 152° |
| 2026-04-20 19:32 | 20.22128 | 116.52308 | 36916 ft | 478 kts | 152° |
| 2026-04-20 19:32 | 20.16497 | 116.56092 | 36916 ft | 477 kts | 152° |
| 2026-04-20 19:33 | 20.10919 | 116.59838 | 36918 ft | 477 kts | 152° |
| 2026-04-20 19:33 | 20.05309 | 116.63602 | 36917 ft | 477 kts | 152° |
| 2026-04-20 19:34 | 19.99838 | 116.67621 | 36914 ft | 482 kts | 142° |
| 2026-04-20 19:34 | 19.95127 | 116.72716 | 36916 ft | 485 kts | 136° |
| 2026-04-20 19:35 | 19.91314 | 116.77153 | 36915 ft | 485 kts | 136° |
| 2026-04-20 19:35 | 19.86809 | 116.82438 | 36916 ft | 485 kts | 136° |
| 2026-04-20 19:36 | 19.82269 | 116.87727 | 36917 ft | 484 kts | 136° |
| 2026-04-20 19:36 | 19.77720 | 116.92995 | 36915 ft | 484 kts | 136° |
| 2026-04-20 19:37 | 19.73164 | 116.98262 | 36917 ft | 483 kts | 136° |
| 2026-04-20 19:37 | 19.68617 | 117.03513 | 36919 ft | 483 kts | 136° |
| 2026-04-20 19:38 | 19.64074 | 117.08756 | 36918 ft | 482 kts | 136° |
| 2026-04-20 19:38 | 19.59531 | 117.13995 | 36922 ft | 482 kts | 136° |
| 2026-04-20 19:39 | 19.54992 | 117.19224 | 36922 ft | 482 kts | 136° |
| 2026-04-20 19:39 | 19.50446 | 117.24458 | 36917 ft | 482 kts | 136° |
| 2026-04-20 19:40 | 19.45932 | 117.29649 | 36921 ft | 482 kts | 136° |
| 2026-04-20 19:40 | 19.41382 | 117.34878 | 36915 ft | 482 kts | 136° |
| 2026-04-20 19:41 | 19.36835 | 117.40098 | 36917 ft | 482 kts | 136° |
| 2026-04-20 19:41 | 19.32283 | 117.45320 | 36922 ft | 482 kts | 136° |
| 2026-04-20 19:42 | 19.27731 | 117.50536 | 36921 ft | 482 kts | 136° |
| 2026-04-20 19:42 | 19.23179 | 117.55749 | 36919 ft | 482 kts | 136° |
| 2026-04-20 19:43 | 19.19399 | 117.60075 | 36920 ft | 482 kts | 136° |
| 2026-04-20 19:43 | 19.14076 | 117.66160 | 36918 ft | 482 kts | 136° |
| 2026-04-20 19:44 | 19.09561 | 117.71316 | 36918 ft | 481 kts | 136° |
| 2026-04-20 19:44 | 19.05009 | 117.76510 | 36918 ft | 481 kts | 136° |
| 2026-04-20 19:45 | 19.00461 | 117.81704 | 36915 ft | 481 kts | 136° |
| 2026-04-20 19:45 | 18.95907 | 117.86892 | 36914 ft | 481 kts | 136° |
| 2026-04-20 19:46 | 18.91353 | 117.92068 | 36915 ft | 480 kts | 136° |
| 2026-04-20 19:46 | 18.86804 | 117.97237 | 36915 ft | 480 kts | 136° |
| 2026-04-20 19:47 | 18.82256 | 118.02405 | 36915 ft | 480 kts | 136° |
| 2026-04-20 19:47 | 18.77707 | 118.07569 | 36921 ft | 480 kts | 136° |
| 2026-04-20 19:48 | 18.73163 | 118.12723 | 36920 ft | 479 kts | 136° |
| 2026-04-20 19:48 | 18.68623 | 118.17869 | 36916 ft | 479 kts | 136° |
| 2026-04-20 19:49 | 18.64112 | 118.22976 | 36917 ft | 478 kts | 136° |
| 2026-04-20 19:49 | 18.59577 | 118.28107 | 36915 ft | 478 kts | 136° |
| 2026-04-20 19:50 | 18.55039 | 118.33236 | 36918 ft | 478 kts | 136° |
| 2026-04-20 19:50 | 18.50505 | 118.38358 | 36915 ft | 477 kts | 136° |
| 2026-04-20 19:51 | 18.45975 | 118.43469 | 36916 ft | 477 kts | 137° |
| 2026-04-20 19:51 | 18.41448 | 118.48574 | 36918 ft | 477 kts | 137° |
| 2026-04-20 19:52 | 18.36920 | 118.53675 | 36913 ft | 477 kts | 137° |
| 2026-04-20 19:52 | 18.32391 | 118.58772 | 36917 ft | 476 kts | 137° |
| 2026-04-20 19:53 | 18.27865 | 118.63863 | 36916 ft | 476 kts | 137° |
| 2026-04-20 19:53 | 18.23366 | 118.68919 | 36914 ft | 476 kts | 137° |
| 2026-04-20 19:54 | 18.18837 | 118.74005 | 36915 ft | 476 kts | 137° |
| 2026-04-20 19:54 | 18.14313 | 118.79082 | 36916 ft | 476 kts | 137° |
| 2026-04-20 19:55 | 18.09789 | 118.84153 | 36910 ft | 475 kts | 137° |
| 2026-04-20 19:55 | 18.05263 | 118.89223 | 36908 ft | 475 kts | 137° |
| 2026-04-20 19:56 | 18.00725 | 118.94268 | 36903 ft | 474 kts | 140° |
| 2026-04-20 19:56 | 17.98172 | 118.96410 | 36922 ft | 467 kts | 152° |
| 2026-04-20 19:56 | 17.95409 | 118.98184 | 36923 ft | 465 kts | 154° |
| 2026-04-20 19:57 | 17.89797 | 119.01482 | 36911 ft | 464 kts | 155° |
| 2026-04-20 19:57 | 17.84121 | 119.04718 | 36913 ft | 464 kts | 155° |
| 2026-04-20 19:58 | 17.78451 | 119.07971 | 36909 ft | 464 kts | 155° |
| 2026-04-20 19:58 | 17.72787 | 119.11245 | 36902 ft | 464 kts | 155° |
| 2026-04-20 19:58 | 17.69965 | 119.12879 | 36777 ft | 461 kts | 155° |
| 2026-04-20 19:59 | 17.67158 | 119.14505 | 36069 ft | 464 kts | 155° |
| 2026-04-20 19:59 | 17.64306 | 119.16151 | 35170 ft | 472 kts | 155° |
| 2026-04-20 19:59 | 17.61409 | 119.17822 | 34335 ft | 478 kts | 154° |
| 2026-04-20 19:59 | 17.58489 | 119.19508 | 33673 ft | 480 kts | 154° |
| 2026-04-20 20:00 | 17.55572 | 119.21194 | 33072 ft | 478 kts | 154° |
| 2026-04-20 20:00 | 17.52665 | 119.22875 | 32536 ft | 475 kts | 154° |
| 2026-04-20 20:00 | 17.49778 | 119.24544 | 32009 ft | 472 kts | 154° |
| 2026-04-20 20:00 | 17.46914 | 119.26198 | 31502 ft | 469 kts | 154° |
| 2026-04-20 20:01 | 17.44061 | 119.27845 | 31010 ft | 466 kts | 154° |
| 2026-04-20 20:01 | 17.41229 | 119.29478 | 30524 ft | 462 kts | 154° |
| 2026-04-20 20:01 | 17.38418 | 119.31099 | 30044 ft | 459 kts | 154° |
| 2026-04-20 20:01 | 17.35628 | 119.32706 | 29503 ft | 456 kts | 154° |
| 2026-04-20 20:02 | 17.32854 | 119.34304 | 28982 ft | 453 kts | 154° |
| 2026-04-20 20:02 | 17.30108 | 119.35886 | 28489 ft | 449 kts | 154° |
| 2026-04-20 20:02 | 17.27382 | 119.37455 | 27976 ft | 445 kts | 154° |
| 2026-04-20 20:02 | 17.24681 | 119.39009 | 27487 ft | 441 kts | 154° |
| 2026-04-20 20:03 | 17.22000 | 119.40551 | 27027 ft | 438 kts | 153° |
| 2026-04-20 20:03 | 17.19376 | 119.42060 | 26553 ft | 435 kts | 153° |
| 2026-04-20 20:03 | 17.16742 | 119.43573 | 26238 ft | 429 kts | 153° |
| 2026-04-20 20:03 | 17.14121 | 119.45079 | 26023 ft | 430 kts | 153° |
| 2026-04-20 20:04 | 17.11504 | 119.46581 | 25786 ft | 429 kts | 153° |
| 2026-04-20 20:04 | 17.08894 | 119.48079 | 25553 ft | 427 kts | 153° |
| 2026-04-20 20:04 | 17.06293 | 119.49571 | 25324 ft | 426 kts | 153° |
| 2026-04-20 20:04 | 17.03693 | 119.51063 | 25098 ft | 424 kts | 153° |
| 2026-04-20 20:05 | 17.01112 | 119.52544 | 24873 ft | 422 kts | 153° |
| 2026-04-20 20:05 | 16.98544 | 119.54017 | 24649 ft | 421 kts | 153° |
| 2026-04-20 20:05 | 16.95983 | 119.55485 | 24427 ft | 419 kts | 153° |
| 2026-04-20 20:05 | 16.93431 | 119.56948 | 24205 ft | 417 kts | 153° |
| 2026-04-20 20:06 | 16.90887 | 119.58405 | 23987 ft | 416 kts | 153° |
| 2026-04-20 20:06 | 16.88352 | 119.59857 | 23772 ft | 414 kts | 153° |
| 2026-04-20 20:06 | 16.85834 | 119.61299 | 23557 ft | 413 kts | 153° |
| 2026-04-20 20:06 | 16.83321 | 119.62737 | 23344 ft | 408 kts | 153° |
| 2026-04-20 20:07 | 16.80868 | 119.64143 | 23142 ft | 397 kts | 153° |
| 2026-04-20 20:07 | 16.78473 | 119.65516 | 22952 ft | 387 kts | 153° |
| 2026-04-20 20:07 | 16.76141 | 119.66851 | 22762 ft | 378 kts | 153° |
| 2026-04-20 20:07 | 16.73866 | 119.68153 | 22578 ft | 369 kts | 153° |
| 2026-04-20 20:08 | 16.71642 | 119.69425 | 22411 ft | 360 kts | 153° |
| 2026-04-20 20:08 | 16.69475 | 119.70663 | 22254 ft | 351 kts | 153° |
| 2026-04-20 20:08 | 16.67363 | 119.71870 | 22101 ft | 342 kts | 153° |
| 2026-04-20 20:08 | 16.65300 | 119.73049 | 21941 ft | 333 kts | 153° |
| 2026-04-20 20:09 | 16.63293 | 119.74194 | 21799 ft | 325 kts | 153° |
| 2026-04-20 20:09 | 16.61338 | 119.75311 | 21658 ft | 316 kts | 153° |
| 2026-04-20 20:09 | 16.59459 | 119.76383 | 21523 ft | 308 kts | 153° |
| 2026-04-20 20:09 | 16.57606 | 119.77441 | 21393 ft | 299 kts | 153° |
| 2026-04-20 20:10 | 16.55784 | 119.78481 | 21264 ft | 291 kts | 153° |
| 2026-04-20 20:10 | 16.54055 | 119.79467 | 21134 ft | 283 kts | 153° |
| 2026-04-20 20:10 | 16.52343 | 119.80443 | 20928 ft | 278 kts | 153° |
| 2026-04-20 20:10 | 16.50652 | 119.81406 | 20698 ft | 276 kts | 153° |
| 2026-04-20 20:11 | 16.48974 | 119.82361 | 20464 ft | 274 kts | 153° |
| 2026-04-20 20:11 | 16.47301 | 119.83313 | 20238 ft | 274 kts | 153° |
| 2026-04-20 20:11 | 16.45632 | 119.84264 | 20002 ft | 272 kts | 153° |
| 2026-04-20 20:11 | 16.43971 | 119.85209 | 19779 ft | 271 kts | 153° |
| 2026-04-20 20:12 | 16.42318 | 119.86150 | 19549 ft | 270 kts | 153° |
| 2026-04-20 20:12 | 16.40670 | 119.87089 | 19327 ft | 269 kts | 153° |
| 2026-04-20 20:12 | 16.39031 | 119.88022 | 19111 ft | 268 kts | 153° |
| 2026-04-20 20:13 | 16.35768 | 119.89880 | 18676 ft | 266 kts | 153° |
| 2026-04-20 20:13 | 16.34143 | 119.90804 | 18457 ft | 265 kts | 153° |
| 2026-04-20 20:13 | 16.32548 | 119.91712 | 18239 ft | 264 kts | 153° |
| 2026-04-20 20:13 | 16.30919 | 119.92638 | 17988 ft | 263 kts | 153° |
| 2026-04-20 20:14 | 16.29316 | 119.93549 | 17737 ft | 262 kts | 153° |
| 2026-04-20 20:14 | 16.27745 | 119.94441 | 17495 ft | 260 kts | 153° |
| 2026-04-20 20:14 | 16.26160 | 119.95342 | 17254 ft | 258 kts | 153° |
| 2026-04-20 20:14 | 16.24568 | 119.96247 | 17002 ft | 257 kts | 153° |
| 2026-04-20 20:15 | 16.23021 | 119.97125 | 16768 ft | 256 kts | 153° |
| 2026-04-20 20:15 | 16.22492 | 119.97426 | 16686 ft | 255 kts | 153° |
| 2026-04-20 20:15 | 16.20891 | 119.98336 | 16434 ft | 254 kts | 153° |
| 2026-04-20 20:15 | 16.19443 | 119.99158 | 16206 ft | 252 kts | 153° |
| 2026-04-20 20:16 | 16.17904 | 120.00032 | 15974 ft | 250 kts | 152° |
| 2026-04-20 20:16 | 16.16383 | 120.00896 | 15927 ft | 250 kts | 152° |
| 2026-04-20 20:16 | 16.14855 | 120.01764 | 15923 ft | 250 kts | 152° |
| 2026-04-20 20:16 | 16.13332 | 120.02629 | 15926 ft | 250 kts | 152° |
| 2026-04-20 20:17 | 16.11806 | 120.03495 | 15928 ft | 250 kts | 152° |
| 2026-04-20 20:17 | 16.10282 | 120.04360 | 15929 ft | 249 kts | 152° |
| 2026-04-20 20:17 | 16.08758 | 120.05225 | 15930 ft | 250 kts | 152° |
| 2026-04-20 20:17 | 16.07232 | 120.06090 | 15929 ft | 249 kts | 152° |
| 2026-04-20 20:18 | 16.05707 | 120.06955 | 15928 ft | 249 kts | 152° |
| 2026-04-20 20:18 | 16.04183 | 120.07819 | 15930 ft | 249 kts | 152° |
| 2026-04-20 20:18 | 16.02660 | 120.08683 | 15930 ft | 250 kts | 152° |
| 2026-04-20 20:18 | 16.01138 | 120.09546 | 15931 ft | 250 kts | 152° |
| 2026-04-20 20:19 | 15.99610 | 120.10412 | 15933 ft | 250 kts | 152° |
| 2026-04-20 20:19 | 15.98088 | 120.11275 | 15932 ft | 249 kts | 152° |
| 2026-04-20 20:19 | 15.96589 | 120.12125 | 15934 ft | 249 kts | 152° |
| 2026-04-20 20:19 | 15.95068 | 120.12986 | 15937 ft | 249 kts | 152° |
| 2026-04-20 20:20 | 15.93540 | 120.13849 | 15936 ft | 249 kts | 152° |
| 2026-04-20 20:20 | 15.92016 | 120.14711 | 15939 ft | 249 kts | 152° |
| 2026-04-20 20:20 | 15.90491 | 120.15576 | 15941 ft | 249 kts | 152° |
| 2026-04-20 20:20 | 15.88965 | 120.16440 | 15941 ft | 249 kts | 152° |
| 2026-04-20 20:21 | 15.87442 | 120.17303 | 15941 ft | 249 kts | 152° |
| 2026-04-20 20:21 | 15.85917 | 120.18167 | 15943 ft | 249 kts | 152° |
| 2026-04-20 20:21 | 15.84908 | 120.18739 | 15943 ft | 249 kts | 152° |
| 2026-04-20 20:21 | 15.83385 | 120.19601 | 15944 ft | 249 kts | 152° |
| 2026-04-20 20:22 | 15.81861 | 120.20462 | 15948 ft | 250 kts | 152° |
| 2026-04-20 20:22 | 15.80333 | 120.21326 | 15949 ft | 250 kts | 152° |
| 2026-04-20 20:22 | 15.78805 | 120.22189 | 15950 ft | 250 kts | 152° |
| 2026-04-20 20:22 | 15.77282 | 120.23050 | 15951 ft | 250 kts | 152° |
| 2026-04-20 20:23 | 15.75775 | 120.23901 | 15950 ft | 250 kts | 152° |
| 2026-04-20 20:23 | 15.74249 | 120.24763 | 15955 ft | 250 kts | 152° |
| 2026-04-20 20:23 | 15.72742 | 120.25614 | 15951 ft | 250 kts | 152° |
| 2026-04-20 20:23 | 15.70720 | 120.26756 | 15958 ft | 250 kts | 152° |
| 2026-04-20 20:24 | 15.69688 | 120.27340 | 15957 ft | 250 kts | 152° |
| 2026-04-20 20:24 | 15.68160 | 120.28203 | 15957 ft | 250 kts | 152° |
| 2026-04-20 20:24 | 15.66634 | 120.29067 | 15959 ft | 250 kts | 152° |
| 2026-04-20 20:24 | 15.65109 | 120.29931 | 15960 ft | 250 kts | 152° |
| 2026-04-20 20:25 | 15.63580 | 120.30793 | 15960 ft | 250 kts | 152° |
| 2026-04-20 20:25 | 15.62050 | 120.31655 | 15962 ft | 250 kts | 152° |
| 2026-04-20 20:25 | 15.60523 | 120.32514 | 15964 ft | 250 kts | 152° |
| 2026-04-20 20:25 | 15.59014 | 120.33363 | 15963 ft | 250 kts | 152° |
| 2026-04-20 20:26 | 15.57486 | 120.34225 | 15964 ft | 250 kts | 152° |
| 2026-04-20 20:26 | 15.55958 | 120.35087 | 15966 ft | 250 kts | 152° |
| 2026-04-20 20:26 | 15.54429 | 120.35949 | 15969 ft | 250 kts | 152° |
| 2026-04-20 20:26 | 15.52901 | 120.36812 | 15969 ft | 250 kts | 152° |
| 2026-04-20 20:27 | 15.51609 | 120.37540 | 15968 ft | 250 kts | 152° |
| 2026-04-20 20:27 | 15.50224 | 120.38325 | 15967 ft | 250 kts | 152° |
| 2026-04-20 20:27 | 15.48865 | 120.39092 | 15966 ft | 250 kts | 152° |
| 2026-04-20 20:27 | 15.47325 | 120.39958 | 15959 ft | 250 kts | 152° |
| 2026-04-20 20:28 | 15.45797 | 120.40816 | 15951 ft | 250 kts | 152° |
| 2026-04-20 20:28 | 15.44250 | 120.41686 | 15642 ft | 255 kts | 152° |
| 2026-04-20 20:28 | 15.42707 | 120.42554 | 15474 ft | 250 kts | 152° |
| 2026-04-20 20:28 | 15.41157 | 120.43333 | 15254 ft | 247 kts | 159° |
| 2026-04-20 20:29 | 15.39531 | 120.43903 | 15008 ft | 245 kts | 163° |
| 2026-04-20 20:29 | 15.37923 | 120.44408 | 14761 ft | 245 kts | 163° |
| 2026-04-20 20:29 | 15.36304 | 120.44916 | 14518 ft | 243 kts | 163° |
| 2026-04-20 20:29 | 15.34690 | 120.45426 | 14277 ft | 242 kts | 162° |
| 2026-04-20 20:30 | 15.33082 | 120.45935 | 14045 ft | 241 kts | 162° |
| 2026-04-20 20:30 | 15.31486 | 120.46441 | 13820 ft | 239 kts | 162° |
| 2026-04-20 20:30 | 15.29896 | 120.46946 | 13557 ft | 238 kts | 162° |
| 2026-04-20 20:30 | 15.28315 | 120.47448 | 13293 ft | 237 kts | 162° |
| 2026-04-20 20:31 | 15.26739 | 120.47949 | 13040 ft | 236 kts | 162° |
| 2026-04-20 20:31 | 15.25175 | 120.48445 | 12793 ft | 234 kts | 162° |
| 2026-04-20 20:31 | 15.23625 | 120.48937 | 12537 ft | 233 kts | 162° |
| 2026-04-20 20:31 | 15.22076 | 120.49429 | 12288 ft | 232 kts | 162° |
| 2026-04-20 20:32 | 15.20542 | 120.49917 | 12038 ft | 230 kts | 162° |
| 2026-04-20 20:32 | 15.19012 | 120.50402 | 11788 ft | 229 kts | 162° |
| 2026-04-20 20:32 | 15.17490 | 120.50884 | 11536 ft | 228 kts | 162° |
| 2026-04-20 20:32 | 15.15976 | 120.51365 | 11288 ft | 227 kts | 161° |
| 2026-04-20 20:33 | 15.14467 | 120.51844 | 11057 ft | 226 kts | 161° |
| 2026-04-20 20:33 | 15.12968 | 120.52319 | 10823 ft | 225 kts | 161° |
| 2026-04-20 20:33 | 15.11479 | 120.52791 | 10581 ft | 224 kts | 161° |
| 2026-04-20 20:33 | 15.09994 | 120.53262 | 10356 ft | 223 kts | 161° |
| 2026-04-20 20:34 | 15.08517 | 120.53730 | 10130 ft | 221 kts | 161° |
| 2026-04-20 20:34 | 15.07050 | 120.54195 | 10050 ft | 220 kts | 161° |
| 2026-04-20 20:34 | 15.05578 | 120.54662 | 10038 ft | 221 kts | 161° |
| 2026-04-20 20:34 | 15.04110 | 120.55128 | 10041 ft | 221 kts | 161° |
| 2026-04-20 20:35 | 15.02658 | 120.55587 | 10044 ft | 221 kts | 161° |
| 2026-04-20 20:35 | 15.01189 | 120.56053 | 10046 ft | 221 kts | 161° |
| 2026-04-20 20:35 | 14.99718 | 120.56520 | 10048 ft | 221 kts | 161° |
| 2026-04-20 20:35 | 14.98250 | 120.56985 | 10048 ft | 221 kts | 161° |
| 2026-04-20 20:36 | 14.96782 | 120.57450 | 10050 ft | 221 kts | 161° |
| 2026-04-20 20:36 | 14.95294 | 120.57921 | 10050 ft | 221 kts | 161° |
| 2026-04-20 20:36 | 14.93845 | 120.58387 | 10051 ft | 221 kts | 161° |
| 2026-04-20 20:36 | 14.92379 | 120.58850 | 10056 ft | 221 kts | 161° |
| 2026-04-20 20:37 | 14.90909 | 120.59311 | 10052 ft | 221 kts | 161° |
| 2026-04-20 20:37 | 14.89440 | 120.59773 | 10056 ft | 221 kts | 161° |
| 2026-04-20 20:37 | 14.87969 | 120.60238 | 10058 ft | 221 kts | 161° |
| 2026-04-20 20:37 | 14.86501 | 120.60702 | 10060 ft | 221 kts | 161° |
| 2026-04-20 20:38 | 14.85031 | 120.61166 | 10058 ft | 221 kts | 161° |
| 2026-04-20 20:38 | 14.83561 | 120.61631 | 10059 ft | 221 kts | 161° |
| 2026-04-20 20:38 | 14.82092 | 120.62095 | 10060 ft | 221 kts | 161° |
| 2026-04-20 20:38 | 14.80629 | 120.62558 | 10060 ft | 221 kts | 161° |
| 2026-04-20 20:39 | 14.79161 | 120.63021 | 10055 ft | 221 kts | 161° |
| 2026-04-20 20:39 | 14.77690 | 120.63485 | 10053 ft | 221 kts | 161° |
| 2026-04-20 20:39 | 14.76219 | 120.63950 | 10056 ft | 221 kts | 161° |
| 2026-04-20 20:39 | 14.74762 | 120.64410 | 10056 ft | 220 kts | 161° |
| 2026-04-20 20:40 | 14.73293 | 120.64874 | 10046 ft | 220 kts | 160° |
| 2026-04-20 20:40 | 14.71857 | 120.65327 | 9843 ft | 218 kts | 160° |
| 2026-04-20 20:40 | 14.70407 | 120.65786 | 9559 ft | 218 kts | 160° |
| 2026-04-20 20:40 | 14.68935 | 120.66251 | 9289 ft | 218 kts | 160° |
| 2026-04-20 20:41 | 14.67491 | 120.66707 | 9040 ft | 217 kts | 160° |
| 2026-04-20 20:41 | 14.66053 | 120.67161 | 8781 ft | 216 kts | 160° |
| 2026-04-20 20:41 | 14.64639 | 120.67607 | 8527 ft | 215 kts | 160° |
| 2026-04-20 20:41 | 14.63195 | 120.68063 | 8268 ft | 214 kts | 160° |
| 2026-04-20 20:42 | 14.61835 | 120.68522 | 8033 ft | 212 kts | 156° |
| 2026-04-20 20:42 | 14.60499 | 120.69200 | 7782 ft | 210 kts | 148° |
| 2026-04-20 20:42 | 14.59250 | 120.69936 | 7550 ft | 209 kts | 148° |
| 2026-04-20 20:42 | 14.57991 | 120.70681 | 7310 ft | 208 kts | 148° |
| 2026-04-20 20:43 | 14.56736 | 120.71420 | 7072 ft | 207 kts | 148° |
| 2026-04-20 20:43 | 14.55484 | 120.72156 | 6840 ft | 206 kts | 148° |
| 2026-04-20 20:43 | 14.54241 | 120.72885 | 6609 ft | 205 kts | 148° |
| 2026-04-20 20:43 | 14.52999 | 120.73614 | 6374 ft | 205 kts | 148° |
| 2026-04-20 20:44 | 14.51762 | 120.74339 | 6131 ft | 204 kts | 148° |
| 2026-04-20 20:44 | 14.50527 | 120.75067 | 5881 ft | 204 kts | 148° |
| 2026-04-20 20:44 | 14.49300 | 120.75795 | 5651 ft | 203 kts | 148° |
| 2026-04-20 20:44 | 14.48079 | 120.76518 | 5408 ft | 202 kts | 148° |
| 2026-04-20 20:45 | 14.46860 | 120.77241 | 5177 ft | 201 kts | 148° |
| 2026-04-20 20:45 | 14.45647 | 120.77959 | 4943 ft | 201 kts | 148° |
| 2026-04-20 20:45 | 14.44444 | 120.78671 | 4652 ft | 198 kts | 148° |
| 2026-04-20 20:45 | 14.43252 | 120.79376 | 4226 ft | 197 kts | 147° |
| 2026-04-20 20:46 | 14.42073 | 120.80080 | 3849 ft | 196 kts | 147° |
| 2026-04-20 20:46 | 14.41037 | 120.80960 | 3431 ft | 192 kts | 126° |
| 2026-04-20 20:46 | 14.40525 | 120.82160 | 3211 ft | 176 kts | 98° |
| 2026-04-20 20:46 | 14.40587 | 120.83360 | 2962 ft | 165 kts | 75° |
| 2026-04-20 20:47 | 14.41056 | 120.84431 | 2568 ft | 165 kts | 60° |
| 2026-04-20 20:47 | 14.41681 | 120.85410 | 2295 ft | 158 kts | 59° |
| 2026-04-20 20:47 | 14.42223 | 120.86355 | 2068 ft | 149 kts | 63° |
| 2026-04-20 20:47 | 14.42724 | 120.87278 | 1795 ft | 146 kts | 62° |
| 2026-04-20 20:48 | 14.43202 | 120.88146 | 1699 ft | 132 kts | 62° |
| 2026-04-20 20:48 | 14.43654 | 120.88954 | 1698 ft | 131 kts | 62° |
| 2026-04-20 20:48 | 14.44113 | 120.89775 | 1694 ft | 134 kts | 62° |
| 2026-04-20 20:48 | 14.44579 | 120.90610 | 1692 ft | 134 kts | 62° |
| 2026-04-20 20:49 | 14.45036 | 120.91431 | 1686 ft | 133 kts | 62° |
| 2026-04-20 20:49 | 14.45494 | 120.92261 | 1681 ft | 134 kts | 62° |
| 2026-04-20 20:49 | 14.45960 | 120.93104 | 1527 ft | 135 kts | 62° |
| 2026-04-20 20:49 | 14.46421 | 120.93939 | 1364 ft | 134 kts | 62° |
| 2026-04-20 20:50 | 14.46882 | 120.94771 | 1186 ft | 134 kts | 62° |
| 2026-04-20 20:50 | 14.47346 | 120.95609 | 993 ft | 134 kts | 62° |
| 2026-04-20 20:50 | 14.47812 | 120.96452 | 813 ft | 135 kts | 61° |
| 2026-04-20 20:50 | 14.48121 | 120.97007 | 796 ft | 131 kts | 61° |
| 2026-04-20 20:51 | 14.48647 | 120.97927 | 627 ft | 139 kts | 60° |
| 2026-04-20 20:51 | 14.49127 | 120.98769 | 396 ft | 137 kts | 60° |
| 2026-04-20 20:51 | 14.49601 | 120.99608 | 252 ft | 134 kts | 62° |
| 2026-04-20 20:51 | 14.50048 | 121.00461 | 113 ft | 134 kts | 63° |
| 2026-04-20 20:52 | 14.50399 | 121.01114 | 69 ft | 122 kts | 59° |
| 2026-04-20 20:52 | 14.50725 | 121.01698 | 66 ft | 54 kts | 60° |
| 2026-04-20 20:52 | 14.50793 | 121.01821 | 65 ft | 13 kts | 60° |
| 2026-04-20 20:52 | 14.50855 | 121.01932 | 66 ft | 22 kts | 60° |
| 2026-04-20 20:53 | 14.50925 | 121.01997 | 70 ft | 0 kts | 1° |
| 2026-04-20 20:54 | 14.50931 | 121.01995 | 67 ft | 1 kts | 347° |
| 2026-04-20 20:54 | 14.50967 | 121.01983 | 70 ft | 9 kts | 338° |
| 2026-04-20 20:55 | 14.51030 | 121.01985 | 66 ft | 10 kts | 8° |
| 2026-04-20 20:55 | 14.51091 | 121.01964 | 72 ft | 8 kts | 322° |
| 2026-04-20 20:55 | 14.51139 | 121.01918 | 69 ft | 11 kts | 316° |
| 2026-04-20 20:55 | 14.51201 | 121.01855 | 64 ft | 14 kts | 314° |
| 2026-04-20 20:56 | 14.51272 | 121.01777 | 65 ft | 16 kts | 313° |
| 2026-04-20 20:56 | 14.51359 | 121.01689 | 64 ft | 19 kts | 314° |
| 2026-04-20 20:56 | 14.51456 | 121.01589 | 67 ft | 19 kts | 315° |
| 2026-04-20 20:56 | 14.51517 | 121.01526 | 68 ft | 1 kts | 315° |
| 2026-04-20 20:57 | 14.51555 | 121.01517 | 66 ft | 5 kts | 15° |
| 2026-04-20 20:57 | 14.51585 | 121.01537 | 67 ft | 6 kts | 38° |
| 2026-04-20 20:57 | 14.51605 | 121.01554 | 66 ft | 0 kts | 40° |